<?xml version="1.0" encoding="UTF-8" standalone="no" ?>
<gpx xmlns="http://www.topografix.com/GPX/1/1" xmlns:xsi="http://www.w3.org/2001/XMLSchema-instance" xsi:schemaLocation="http://www.topografix.com/GPX/1/1 http://www.topografix.com/GPX/1/1/gpx.xsd" version="1.1" creator="VisuGPX - https://www.visugpx.com">
  <metadata>
    <name>Etaules(tremblade)</name>
  </metadata>
  <trk>
    <name><![CDATA[25-FEV-21 16:12:01]]></name>
    <trkseg>
      <trkpt lat="45.72748" lon="-1.09727">
        <ele>-112.34</ele>
        <time>2021-02-25T12:34:27Z</time>
      </trkpt>
      <trkpt lat="45.72753" lon="-1.09736">
        <ele>-94.07</ele>
        <time>2021-02-25T12:38:55Z</time>
      </trkpt>
      <trkpt lat="45.7276" lon="-1.09744">
        <ele>-92.63</ele>
        <time>2021-02-25T12:39:23Z</time>
      </trkpt>
      <trkpt lat="45.72769" lon="-1.09752">
        <ele>-91.67</ele>
        <time>2021-02-25T12:39:40Z</time>
      </trkpt>
      <trkpt lat="45.72778" lon="-1.09765">
        <ele>-91.19</ele>
        <time>2021-02-25T12:39:53Z</time>
      </trkpt>
      <trkpt lat="45.72787" lon="-1.09781">
        <ele>-90.23</ele>
        <time>2021-02-25T12:40:03Z</time>
      </trkpt>
      <trkpt lat="45.72796" lon="-1.09801">
        <ele>-89.27</ele>
        <time>2021-02-25T12:40:16Z</time>
      </trkpt>
      <trkpt lat="45.72808" lon="-1.09822">
        <ele>-88.78</ele>
        <time>2021-02-25T12:40:29Z</time>
      </trkpt>
      <trkpt lat="45.72822" lon="-1.09836">
        <ele>-88.3</ele>
        <time>2021-02-25T12:40:39Z</time>
      </trkpt>
      <trkpt lat="45.72831" lon="-1.09852">
        <ele>-87.34</ele>
        <time>2021-02-25T12:40:49Z</time>
      </trkpt>
      <trkpt lat="45.72839" lon="-1.09867">
        <ele>-86.86</ele>
        <time>2021-02-25T12:41:01Z</time>
      </trkpt>
      <trkpt lat="45.72848" lon="-1.0988">
        <ele>-85.42</ele>
        <time>2021-02-25T12:41:13Z</time>
      </trkpt>
      <trkpt lat="45.72855" lon="-1.09899">
        <ele>-84.94</ele>
        <time>2021-02-25T12:41:26Z</time>
      </trkpt>
      <trkpt lat="45.72864" lon="-1.09923">
        <ele>-83.5</ele>
        <time>2021-02-25T12:41:39Z</time>
      </trkpt>
      <trkpt lat="45.72872" lon="-1.09937">
        <ele>-83.5</ele>
        <time>2021-02-25T12:41:51Z</time>
      </trkpt>
      <trkpt lat="45.72884" lon="-1.09943">
        <ele>-82.06</ele>
        <time>2021-02-25T12:42:03Z</time>
      </trkpt>
      <trkpt lat="45.72897" lon="-1.09954">
        <ele>-81.09</ele>
        <time>2021-02-25T12:42:12Z</time>
      </trkpt>
      <trkpt lat="45.72908" lon="-1.09962">
        <ele>-81.09</ele>
        <time>2021-02-25T12:42:22Z</time>
      </trkpt>
      <trkpt lat="45.72917" lon="-1.09969">
        <ele>-80.13</ele>
        <time>2021-02-25T12:42:32Z</time>
      </trkpt>
      <trkpt lat="45.72927" lon="-1.09978">
        <ele>-79.65</ele>
        <time>2021-02-25T12:42:42Z</time>
      </trkpt>
      <trkpt lat="45.7294" lon="-1.09988">
        <ele>-79.17</ele>
        <time>2021-02-25T12:42:51Z</time>
      </trkpt>
      <trkpt lat="45.7295" lon="-1.09995">
        <ele>-78.69</ele>
        <time>2021-02-25T12:43:00Z</time>
      </trkpt>
      <trkpt lat="45.72959" lon="-1.10003">
        <ele>-78.21</ele>
        <time>2021-02-25T12:43:09Z</time>
      </trkpt>
      <trkpt lat="45.72969" lon="-1.10011">
        <ele>-77.25</ele>
        <time>2021-02-25T12:43:18Z</time>
      </trkpt>
      <trkpt lat="45.72978" lon="-1.1002">
        <ele>-76.77</ele>
        <time>2021-02-25T12:43:27Z</time>
      </trkpt>
      <trkpt lat="45.72986" lon="-1.10027">
        <ele>-76.29</ele>
        <time>2021-02-25T12:43:35Z</time>
      </trkpt>
      <trkpt lat="45.72995" lon="-1.10035">
        <ele>-76.29</ele>
        <time>2021-02-25T12:43:44Z</time>
      </trkpt>
      <trkpt lat="45.73004" lon="-1.10042">
        <ele>-75.81</ele>
        <time>2021-02-25T12:43:53Z</time>
      </trkpt>
      <trkpt lat="45.73013" lon="-1.10049">
        <ele>-75.33</ele>
        <time>2021-02-25T12:44:03Z</time>
      </trkpt>
      <trkpt lat="45.73023" lon="-1.10057">
        <ele>-74.85</ele>
        <time>2021-02-25T12:44:14Z</time>
      </trkpt>
      <trkpt lat="45.73033" lon="-1.10065">
        <ele>-74.36</ele>
        <time>2021-02-25T12:44:24Z</time>
      </trkpt>
      <trkpt lat="45.73039" lon="-1.10079">
        <ele>-73.88</ele>
        <time>2021-02-25T12:44:32Z</time>
      </trkpt>
      <trkpt lat="45.73039" lon="-1.10092">
        <ele>-73.4</ele>
        <time>2021-02-25T12:44:40Z</time>
      </trkpt>
      <trkpt lat="45.73037" lon="-1.10105">
        <ele>-72.44</ele>
        <time>2021-02-25T12:44:49Z</time>
      </trkpt>
      <trkpt lat="45.73034" lon="-1.1012">
        <ele>-71.96</ele>
        <time>2021-02-25T12:44:58Z</time>
      </trkpt>
      <trkpt lat="45.73032" lon="-1.10134">
        <ele>-71.48</ele>
        <time>2021-02-25T12:45:08Z</time>
      </trkpt>
      <trkpt lat="45.7303" lon="-1.10149">
        <ele>-71.48</ele>
        <time>2021-02-25T12:45:18Z</time>
      </trkpt>
      <trkpt lat="45.73028" lon="-1.10165">
        <ele>-71</ele>
        <time>2021-02-25T12:45:31Z</time>
      </trkpt>
      <trkpt lat="45.73027" lon="-1.10193">
        <ele>-70.04</ele>
        <time>2021-02-25T12:45:42Z</time>
      </trkpt>
      <trkpt lat="45.73019" lon="-1.10213">
        <ele>-70.04</ele>
        <time>2021-02-25T12:45:51Z</time>
      </trkpt>
      <trkpt lat="45.73013" lon="-1.10226">
        <ele>-69.56</ele>
        <time>2021-02-25T12:45:58Z</time>
      </trkpt>
      <trkpt lat="45.73009" lon="-1.1024">
        <ele>-69.08</ele>
        <time>2021-02-25T12:46:06Z</time>
      </trkpt>
      <trkpt lat="45.73004" lon="-1.10252">
        <ele>-69.08</ele>
        <time>2021-02-25T12:46:14Z</time>
      </trkpt>
      <trkpt lat="45.72998" lon="-1.10267">
        <ele>-69.08</ele>
        <time>2021-02-25T12:46:23Z</time>
      </trkpt>
      <trkpt lat="45.7299" lon="-1.10278">
        <ele>-68.6</ele>
        <time>2021-02-25T12:46:32Z</time>
      </trkpt>
      <trkpt lat="45.72982" lon="-1.10287">
        <ele>-68.6</ele>
        <time>2021-02-25T12:46:40Z</time>
      </trkpt>
      <trkpt lat="45.72974" lon="-1.10295">
        <ele>-68.12</ele>
        <time>2021-02-25T12:46:48Z</time>
      </trkpt>
      <trkpt lat="45.72965" lon="-1.10306">
        <ele>-68.12</ele>
        <time>2021-02-25T12:46:56Z</time>
      </trkpt>
      <trkpt lat="45.72956" lon="-1.10314">
        <ele>-68.12</ele>
        <time>2021-02-25T12:47:04Z</time>
      </trkpt>
      <trkpt lat="45.72947" lon="-1.10323">
        <ele>-68.12</ele>
        <time>2021-02-25T12:47:12Z</time>
      </trkpt>
      <trkpt lat="45.72939" lon="-1.10331">
        <ele>-67.64</ele>
        <time>2021-02-25T12:47:22Z</time>
      </trkpt>
      <trkpt lat="45.72929" lon="-1.10339">
        <ele>-67.64</ele>
        <time>2021-02-25T12:47:30Z</time>
      </trkpt>
      <trkpt lat="45.7292" lon="-1.10346">
        <ele>-67.15</ele>
        <time>2021-02-25T12:47:37Z</time>
      </trkpt>
      <trkpt lat="45.72911" lon="-1.10351">
        <ele>-66.67</ele>
        <time>2021-02-25T12:47:44Z</time>
      </trkpt>
      <trkpt lat="45.72904" lon="-1.10357">
        <ele>-66.67</ele>
        <time>2021-02-25T12:47:52Z</time>
      </trkpt>
      <trkpt lat="45.72895" lon="-1.10365">
        <ele>-66.19</ele>
        <time>2021-02-25T12:48:00Z</time>
      </trkpt>
      <trkpt lat="45.72886" lon="-1.10371">
        <ele>-66.19</ele>
        <time>2021-02-25T12:48:08Z</time>
      </trkpt>
      <trkpt lat="45.72877" lon="-1.10374">
        <ele>-66.19</ele>
        <time>2021-02-25T12:48:15Z</time>
      </trkpt>
      <trkpt lat="45.72866" lon="-1.10375">
        <ele>-66.19</ele>
        <time>2021-02-25T12:48:23Z</time>
      </trkpt>
      <trkpt lat="45.72855" lon="-1.10376">
        <ele>-65.23</ele>
        <time>2021-02-25T12:48:32Z</time>
      </trkpt>
      <trkpt lat="45.72844" lon="-1.10376">
        <ele>-65.71</ele>
        <time>2021-02-25T12:48:39Z</time>
      </trkpt>
      <trkpt lat="45.72835" lon="-1.10378">
        <ele>-64.75</ele>
        <time>2021-02-25T12:48:47Z</time>
      </trkpt>
      <trkpt lat="45.72825" lon="-1.10379">
        <ele>-65.23</ele>
        <time>2021-02-25T12:48:55Z</time>
      </trkpt>
      <trkpt lat="45.72816" lon="-1.1038">
        <ele>-64.75</ele>
        <time>2021-02-25T12:49:03Z</time>
      </trkpt>
      <trkpt lat="45.72806" lon="-1.10382">
        <ele>-64.27</ele>
        <time>2021-02-25T12:49:13Z</time>
      </trkpt>
      <trkpt lat="45.72795" lon="-1.10381">
        <ele>-63.79</ele>
        <time>2021-02-25T12:49:21Z</time>
      </trkpt>
      <trkpt lat="45.72785" lon="-1.10382">
        <ele>-62.83</ele>
        <time>2021-02-25T12:49:29Z</time>
      </trkpt>
      <trkpt lat="45.72775" lon="-1.10382">
        <ele>-63.31</ele>
        <time>2021-02-25T12:49:37Z</time>
      </trkpt>
      <trkpt lat="45.72763" lon="-1.10382">
        <ele>-62.83</ele>
        <time>2021-02-25T12:49:45Z</time>
      </trkpt>
      <trkpt lat="45.72753" lon="-1.10383">
        <ele>-62.35</ele>
        <time>2021-02-25T12:49:53Z</time>
      </trkpt>
      <trkpt lat="45.72743" lon="-1.10383">
        <ele>-62.35</ele>
        <time>2021-02-25T12:50:01Z</time>
      </trkpt>
      <trkpt lat="45.72733" lon="-1.10382">
        <ele>-62.35</ele>
        <time>2021-02-25T12:50:09Z</time>
      </trkpt>
      <trkpt lat="45.72723" lon="-1.10382">
        <ele>-61.87</ele>
        <time>2021-02-25T12:50:17Z</time>
      </trkpt>
      <trkpt lat="45.72713" lon="-1.10382">
        <ele>-61.87</ele>
        <time>2021-02-25T12:50:25Z</time>
      </trkpt>
      <trkpt lat="45.72704" lon="-1.10382">
        <ele>-61.87</ele>
        <time>2021-02-25T12:50:33Z</time>
      </trkpt>
      <trkpt lat="45.72692" lon="-1.10382">
        <ele>-61.87</ele>
        <time>2021-02-25T12:50:43Z</time>
      </trkpt>
      <trkpt lat="45.72682" lon="-1.10383">
        <ele>-61.87</ele>
        <time>2021-02-25T12:50:51Z</time>
      </trkpt>
      <trkpt lat="45.7267" lon="-1.10385">
        <ele>-61.87</ele>
        <time>2021-02-25T12:50:59Z</time>
      </trkpt>
      <trkpt lat="45.72659" lon="-1.10387">
        <ele>-61.39</ele>
        <time>2021-02-25T12:51:07Z</time>
      </trkpt>
      <trkpt lat="45.72647" lon="-1.1039">
        <ele>-60.91</ele>
        <time>2021-02-25T12:51:16Z</time>
      </trkpt>
      <trkpt lat="45.72638" lon="-1.10395">
        <ele>-60.91</ele>
        <time>2021-02-25T12:51:23Z</time>
      </trkpt>
      <trkpt lat="45.72628" lon="-1.10398">
        <ele>-60.91</ele>
        <time>2021-02-25T12:51:30Z</time>
      </trkpt>
      <trkpt lat="45.72618" lon="-1.10403">
        <ele>-60.43</ele>
        <time>2021-02-25T12:51:38Z</time>
      </trkpt>
      <trkpt lat="45.72607" lon="-1.10402">
        <ele>-60.43</ele>
        <time>2021-02-25T12:51:47Z</time>
      </trkpt>
      <trkpt lat="45.726" lon="-1.10391">
        <ele>-59.46</ele>
        <time>2021-02-25T12:51:56Z</time>
      </trkpt>
      <trkpt lat="45.72594" lon="-1.10379">
        <ele>-58.5</ele>
        <time>2021-02-25T12:52:04Z</time>
      </trkpt>
      <trkpt lat="45.72589" lon="-1.10366">
        <ele>-57.54</ele>
        <time>2021-02-25T12:52:13Z</time>
      </trkpt>
      <trkpt lat="45.72585" lon="-1.10354">
        <ele>-56.58</ele>
        <time>2021-02-25T12:52:21Z</time>
      </trkpt>
      <trkpt lat="45.72579" lon="-1.10343">
        <ele>-55.14</ele>
        <time>2021-02-25T12:52:30Z</time>
      </trkpt>
      <trkpt lat="45.72571" lon="-1.10336">
        <ele>-54.66</ele>
        <time>2021-02-25T12:52:37Z</time>
      </trkpt>
      <trkpt lat="45.72563" lon="-1.10341">
        <ele>-54.66</ele>
        <time>2021-02-25T12:52:45Z</time>
      </trkpt>
      <trkpt lat="45.72554" lon="-1.10349">
        <ele>-54.18</ele>
        <time>2021-02-25T12:52:53Z</time>
      </trkpt>
      <trkpt lat="45.72546" lon="-1.10357">
        <ele>-54.18</ele>
        <time>2021-02-25T12:53:01Z</time>
      </trkpt>
      <trkpt lat="45.72538" lon="-1.10364">
        <ele>-54.18</ele>
        <time>2021-02-25T12:53:08Z</time>
      </trkpt>
      <trkpt lat="45.7253" lon="-1.10373">
        <ele>-54.18</ele>
        <time>2021-02-25T12:53:16Z</time>
      </trkpt>
      <trkpt lat="45.72523" lon="-1.10381">
        <ele>-53.7</ele>
        <time>2021-02-25T12:53:24Z</time>
      </trkpt>
      <trkpt lat="45.72515" lon="-1.1039">
        <ele>-53.7</ele>
        <time>2021-02-25T12:53:32Z</time>
      </trkpt>
      <trkpt lat="45.72508" lon="-1.104">
        <ele>-53.22</ele>
        <time>2021-02-25T12:53:39Z</time>
      </trkpt>
      <trkpt lat="45.72501" lon="-1.1041">
        <ele>-53.22</ele>
        <time>2021-02-25T12:53:46Z</time>
      </trkpt>
      <trkpt lat="45.72494" lon="-1.10419">
        <ele>-52.25</ele>
        <time>2021-02-25T12:53:53Z</time>
      </trkpt>
      <trkpt lat="45.72487" lon="-1.10429">
        <ele>-52.25</ele>
        <time>2021-02-25T12:54:01Z</time>
      </trkpt>
      <trkpt lat="45.72479" lon="-1.10438">
        <ele>-51.77</ele>
        <time>2021-02-25T12:54:08Z</time>
      </trkpt>
      <trkpt lat="45.72472" lon="-1.10447">
        <ele>-51.29</ele>
        <time>2021-02-25T12:54:15Z</time>
      </trkpt>
      <trkpt lat="45.72464" lon="-1.10456">
        <ele>-50.81</ele>
        <time>2021-02-25T12:54:23Z</time>
      </trkpt>
      <trkpt lat="45.72456" lon="-1.10463">
        <ele>-50.33</ele>
        <time>2021-02-25T12:54:31Z</time>
      </trkpt>
      <trkpt lat="45.72448" lon="-1.1047">
        <ele>-49.85</ele>
        <time>2021-02-25T12:54:39Z</time>
      </trkpt>
      <trkpt lat="45.7244" lon="-1.10478">
        <ele>-49.37</ele>
        <time>2021-02-25T12:54:47Z</time>
      </trkpt>
      <trkpt lat="45.72432" lon="-1.10485">
        <ele>-48.89</ele>
        <time>2021-02-25T12:54:55Z</time>
      </trkpt>
      <trkpt lat="45.72423" lon="-1.10492">
        <ele>-48.41</ele>
        <time>2021-02-25T12:55:03Z</time>
      </trkpt>
      <trkpt lat="45.72415" lon="-1.10501">
        <ele>-47.93</ele>
        <time>2021-02-25T12:55:11Z</time>
      </trkpt>
      <trkpt lat="45.72408" lon="-1.10509">
        <ele>-47.93</ele>
        <time>2021-02-25T12:55:18Z</time>
      </trkpt>
      <trkpt lat="45.724" lon="-1.10517">
        <ele>-46.97</ele>
        <time>2021-02-25T12:55:27Z</time>
      </trkpt>
      <trkpt lat="45.7239" lon="-1.10525">
        <ele>-46.49</ele>
        <time>2021-02-25T12:55:37Z</time>
      </trkpt>
      <trkpt lat="45.72382" lon="-1.10534">
        <ele>-46.01</ele>
        <time>2021-02-25T12:55:46Z</time>
      </trkpt>
      <trkpt lat="45.72372" lon="-1.1054">
        <ele>-46.01</ele>
        <time>2021-02-25T12:55:53Z</time>
      </trkpt>
      <trkpt lat="45.72363" lon="-1.10547">
        <ele>-45.53</ele>
        <time>2021-02-25T12:56:00Z</time>
      </trkpt>
      <trkpt lat="45.72356" lon="-1.10558">
        <ele>-45.04</ele>
        <time>2021-02-25T12:56:08Z</time>
      </trkpt>
      <trkpt lat="45.72348" lon="-1.10569">
        <ele>-44.56</ele>
        <time>2021-02-25T12:56:17Z</time>
      </trkpt>
      <trkpt lat="45.72341" lon="-1.1058">
        <ele>-44.08</ele>
        <time>2021-02-25T12:56:25Z</time>
      </trkpt>
      <trkpt lat="45.72334" lon="-1.10591">
        <ele>-43.12</ele>
        <time>2021-02-25T12:56:33Z</time>
      </trkpt>
      <trkpt lat="45.72328" lon="-1.10603">
        <ele>-43.12</ele>
        <time>2021-02-25T12:56:41Z</time>
      </trkpt>
      <trkpt lat="45.7232" lon="-1.10613">
        <ele>-42.64</ele>
        <time>2021-02-25T12:56:49Z</time>
      </trkpt>
      <trkpt lat="45.72311" lon="-1.10622">
        <ele>-42.64</ele>
        <time>2021-02-25T12:56:57Z</time>
      </trkpt>
      <trkpt lat="45.72304" lon="-1.10632">
        <ele>-42.16</ele>
        <time>2021-02-25T12:57:05Z</time>
      </trkpt>
      <trkpt lat="45.72296" lon="-1.10643">
        <ele>-41.2</ele>
        <time>2021-02-25T12:57:13Z</time>
      </trkpt>
      <trkpt lat="45.72288" lon="-1.10652">
        <ele>-42.16</ele>
        <time>2021-02-25T12:57:21Z</time>
      </trkpt>
      <trkpt lat="45.7228" lon="-1.10661">
        <ele>-41.2</ele>
        <time>2021-02-25T12:57:29Z</time>
      </trkpt>
      <trkpt lat="45.72272" lon="-1.10671">
        <ele>-40.72</ele>
        <time>2021-02-25T12:57:37Z</time>
      </trkpt>
      <trkpt lat="45.72263" lon="-1.10677">
        <ele>-41.2</ele>
        <time>2021-02-25T12:57:44Z</time>
      </trkpt>
      <trkpt lat="45.72254" lon="-1.10684">
        <ele>-41.2</ele>
        <time>2021-02-25T12:57:52Z</time>
      </trkpt>
      <trkpt lat="45.72244" lon="-1.10689">
        <ele>-40.72</ele>
        <time>2021-02-25T12:58:00Z</time>
      </trkpt>
      <trkpt lat="45.72235" lon="-1.10696">
        <ele>-40.72</ele>
        <time>2021-02-25T12:58:09Z</time>
      </trkpt>
      <trkpt lat="45.72226" lon="-1.107">
        <ele>-40.24</ele>
        <time>2021-02-25T12:58:17Z</time>
      </trkpt>
      <trkpt lat="45.72216" lon="-1.10705">
        <ele>-39.76</ele>
        <time>2021-02-25T12:58:25Z</time>
      </trkpt>
      <trkpt lat="45.72206" lon="-1.1071">
        <ele>-39.28</ele>
        <time>2021-02-25T12:58:33Z</time>
      </trkpt>
      <trkpt lat="45.72199" lon="-1.1072">
        <ele>-39.28</ele>
        <time>2021-02-25T12:58:41Z</time>
      </trkpt>
      <trkpt lat="45.72192" lon="-1.10731">
        <ele>-38.32</ele>
        <time>2021-02-25T12:58:49Z</time>
      </trkpt>
      <trkpt lat="45.72186" lon="-1.10742">
        <ele>-38.32</ele>
        <time>2021-02-25T12:58:57Z</time>
      </trkpt>
      <trkpt lat="45.72179" lon="-1.1075">
        <ele>-37.83</ele>
        <time>2021-02-25T12:59:05Z</time>
      </trkpt>
      <trkpt lat="45.72172" lon="-1.10761">
        <ele>-37.83</ele>
        <time>2021-02-25T12:59:13Z</time>
      </trkpt>
      <trkpt lat="45.72165" lon="-1.1077">
        <ele>-37.35</ele>
        <time>2021-02-25T12:59:21Z</time>
      </trkpt>
      <trkpt lat="45.72165" lon="-1.10781">
        <ele>-37.35</ele>
        <time>2021-02-25T12:59:30Z</time>
      </trkpt>
      <trkpt lat="45.72174" lon="-1.10781">
        <ele>-37.83</ele>
        <time>2021-02-25T12:59:39Z</time>
      </trkpt>
      <trkpt lat="45.72183" lon="-1.10779">
        <ele>-37.35</ele>
        <time>2021-02-25T12:59:48Z</time>
      </trkpt>
      <trkpt lat="45.72193" lon="-1.10779">
        <ele>-36.87</ele>
        <time>2021-02-25T12:59:57Z</time>
      </trkpt>
      <trkpt lat="45.72203" lon="-1.10779">
        <ele>-37.35</ele>
        <time>2021-02-25T13:00:06Z</time>
      </trkpt>
      <trkpt lat="45.72211" lon="-1.1078">
        <ele>-37.35</ele>
        <time>2021-02-25T13:00:15Z</time>
      </trkpt>
      <trkpt lat="45.72221" lon="-1.10781">
        <ele>-37.35</ele>
        <time>2021-02-25T13:00:25Z</time>
      </trkpt>
      <trkpt lat="45.72233" lon="-1.10786">
        <ele>-37.35</ele>
        <time>2021-02-25T13:00:35Z</time>
      </trkpt>
      <trkpt lat="45.72245" lon="-1.10787">
        <ele>-37.83</ele>
        <time>2021-02-25T13:00:46Z</time>
      </trkpt>
      <trkpt lat="45.72256" lon="-1.1079">
        <ele>-37.83</ele>
        <time>2021-02-25T13:00:55Z</time>
      </trkpt>
      <trkpt lat="45.72268" lon="-1.10794">
        <ele>-37.83</ele>
        <time>2021-02-25T13:01:04Z</time>
      </trkpt>
      <trkpt lat="45.7228" lon="-1.10799">
        <ele>-38.32</ele>
        <time>2021-02-25T13:01:12Z</time>
      </trkpt>
      <trkpt lat="45.72294" lon="-1.10805">
        <ele>-37.83</ele>
        <time>2021-02-25T13:01:22Z</time>
      </trkpt>
      <trkpt lat="45.72303" lon="-1.10814">
        <ele>-38.32</ele>
        <time>2021-02-25T13:01:30Z</time>
      </trkpt>
      <trkpt lat="45.72309" lon="-1.10827">
        <ele>-38.8</ele>
        <time>2021-02-25T13:01:38Z</time>
      </trkpt>
      <trkpt lat="45.72314" lon="-1.1084">
        <ele>-39.76</ele>
        <time>2021-02-25T13:01:46Z</time>
      </trkpt>
      <trkpt lat="45.72319" lon="-1.10851">
        <ele>-40.24</ele>
        <time>2021-02-25T13:01:52Z</time>
      </trkpt>
      <trkpt lat="45.72323" lon="-1.10864">
        <ele>-40.72</ele>
        <time>2021-02-25T13:01:59Z</time>
      </trkpt>
      <trkpt lat="45.72327" lon="-1.10877">
        <ele>-41.2</ele>
        <time>2021-02-25T13:02:07Z</time>
      </trkpt>
      <trkpt lat="45.72331" lon="-1.10891">
        <ele>-41.68</ele>
        <time>2021-02-25T13:02:15Z</time>
      </trkpt>
      <trkpt lat="45.72336" lon="-1.10904">
        <ele>-42.16</ele>
        <time>2021-02-25T13:02:23Z</time>
      </trkpt>
      <trkpt lat="45.7234" lon="-1.10916">
        <ele>-42.64</ele>
        <time>2021-02-25T13:02:31Z</time>
      </trkpt>
      <trkpt lat="45.72344" lon="-1.10929">
        <ele>-42.64</ele>
        <time>2021-02-25T13:02:38Z</time>
      </trkpt>
      <trkpt lat="45.72349" lon="-1.1094">
        <ele>-42.16</ele>
        <time>2021-02-25T13:02:45Z</time>
      </trkpt>
      <trkpt lat="45.72353" lon="-1.10953">
        <ele>-42.64</ele>
        <time>2021-02-25T13:02:53Z</time>
      </trkpt>
      <trkpt lat="45.72357" lon="-1.10966">
        <ele>-42.64</ele>
        <time>2021-02-25T13:03:02Z</time>
      </trkpt>
      <trkpt lat="45.72361" lon="-1.10978">
        <ele>-42.64</ele>
        <time>2021-02-25T13:03:10Z</time>
      </trkpt>
      <trkpt lat="45.72366" lon="-1.1099">
        <ele>-42.64</ele>
        <time>2021-02-25T13:03:18Z</time>
      </trkpt>
      <trkpt lat="45.72371" lon="-1.11002">
        <ele>-43.12</ele>
        <time>2021-02-25T13:03:25Z</time>
      </trkpt>
      <trkpt lat="45.72378" lon="-1.11009">
        <ele>-43.12</ele>
        <time>2021-02-25T13:03:33Z</time>
      </trkpt>
      <trkpt lat="45.72384" lon="-1.11018">
        <ele>-43.6</ele>
        <time>2021-02-25T13:03:40Z</time>
      </trkpt>
      <trkpt lat="45.72392" lon="-1.11026">
        <ele>-44.08</ele>
        <time>2021-02-25T13:03:47Z</time>
      </trkpt>
      <trkpt lat="45.724" lon="-1.11033">
        <ele>-44.08</ele>
        <time>2021-02-25T13:03:54Z</time>
      </trkpt>
      <trkpt lat="45.72409" lon="-1.1104">
        <ele>-43.6</ele>
        <time>2021-02-25T13:04:02Z</time>
      </trkpt>
      <trkpt lat="45.72417" lon="-1.11046">
        <ele>-44.08</ele>
        <time>2021-02-25T13:04:09Z</time>
      </trkpt>
      <trkpt lat="45.72426" lon="-1.11054">
        <ele>-44.08</ele>
        <time>2021-02-25T13:04:17Z</time>
      </trkpt>
      <trkpt lat="45.72433" lon="-1.11061">
        <ele>-44.08</ele>
        <time>2021-02-25T13:04:24Z</time>
      </trkpt>
      <trkpt lat="45.72441" lon="-1.11071">
        <ele>-43.6</ele>
        <time>2021-02-25T13:04:32Z</time>
      </trkpt>
      <trkpt lat="45.72448" lon="-1.11081">
        <ele>-44.08</ele>
        <time>2021-02-25T13:04:40Z</time>
      </trkpt>
      <trkpt lat="45.72454" lon="-1.11091">
        <ele>-44.08</ele>
        <time>2021-02-25T13:04:47Z</time>
      </trkpt>
      <trkpt lat="45.72461" lon="-1.11101">
        <ele>-43.6</ele>
        <time>2021-02-25T13:04:55Z</time>
      </trkpt>
      <trkpt lat="45.72466" lon="-1.11112">
        <ele>-43.6</ele>
        <time>2021-02-25T13:05:02Z</time>
      </trkpt>
      <trkpt lat="45.72472" lon="-1.11124">
        <ele>-43.6</ele>
        <time>2021-02-25T13:05:09Z</time>
      </trkpt>
      <trkpt lat="45.72479" lon="-1.11135">
        <ele>-43.12</ele>
        <time>2021-02-25T13:05:17Z</time>
      </trkpt>
      <trkpt lat="45.72484" lon="-1.11145">
        <ele>-43.12</ele>
        <time>2021-02-25T13:05:25Z</time>
      </trkpt>
      <trkpt lat="45.72489" lon="-1.11157">
        <ele>-43.6</ele>
        <time>2021-02-25T13:05:35Z</time>
      </trkpt>
      <trkpt lat="45.72495" lon="-1.11168">
        <ele>-43.6</ele>
        <time>2021-02-25T13:05:42Z</time>
      </trkpt>
      <trkpt lat="45.725" lon="-1.1118">
        <ele>-42.16</ele>
        <time>2021-02-25T13:05:50Z</time>
      </trkpt>
      <trkpt lat="45.72506" lon="-1.11192">
        <ele>-42.64</ele>
        <time>2021-02-25T13:05:57Z</time>
      </trkpt>
      <trkpt lat="45.72511" lon="-1.11202">
        <ele>-43.12</ele>
        <time>2021-02-25T13:06:04Z</time>
      </trkpt>
      <trkpt lat="45.72516" lon="-1.11216">
        <ele>-43.12</ele>
        <time>2021-02-25T13:06:12Z</time>
      </trkpt>
      <trkpt lat="45.7252" lon="-1.11228">
        <ele>-43.6</ele>
        <time>2021-02-25T13:06:22Z</time>
      </trkpt>
      <trkpt lat="45.72525" lon="-1.1124">
        <ele>-43.12</ele>
        <time>2021-02-25T13:06:31Z</time>
      </trkpt>
      <trkpt lat="45.72529" lon="-1.11252">
        <ele>-42.64</ele>
        <time>2021-02-25T13:06:39Z</time>
      </trkpt>
      <trkpt lat="45.72534" lon="-1.11264">
        <ele>-43.6</ele>
        <time>2021-02-25T13:06:47Z</time>
      </trkpt>
      <trkpt lat="45.72538" lon="-1.11277">
        <ele>-43.6</ele>
        <time>2021-02-25T13:06:55Z</time>
      </trkpt>
      <trkpt lat="45.72542" lon="-1.11289">
        <ele>-43.6</ele>
        <time>2021-02-25T13:07:04Z</time>
      </trkpt>
      <trkpt lat="45.72544" lon="-1.11303">
        <ele>-43.12</ele>
        <time>2021-02-25T13:07:13Z</time>
      </trkpt>
      <trkpt lat="45.72548" lon="-1.11318">
        <ele>-43.12</ele>
        <time>2021-02-25T13:07:23Z</time>
      </trkpt>
      <trkpt lat="45.72551" lon="-1.11332">
        <ele>-43.12</ele>
        <time>2021-02-25T13:07:32Z</time>
      </trkpt>
      <trkpt lat="45.72555" lon="-1.11344">
        <ele>-42.64</ele>
        <time>2021-02-25T13:07:40Z</time>
      </trkpt>
      <trkpt lat="45.72561" lon="-1.11354">
        <ele>-42.64</ele>
        <time>2021-02-25T13:07:54Z</time>
      </trkpt>
      <trkpt lat="45.7257" lon="-1.11367">
        <ele>-41.2</ele>
        <time>2021-02-25T13:08:34Z</time>
      </trkpt>
      <trkpt lat="45.72583" lon="-1.11387">
        <ele>-34.95</ele>
        <time>2021-02-25T13:12:20Z</time>
      </trkpt>
      <trkpt lat="45.72588" lon="-1.11392">
        <ele>-34.47</ele>
        <time>2021-02-25T13:12:39Z</time>
      </trkpt>
      <trkpt lat="45.72598" lon="-1.11406">
        <ele>-33.51</ele>
        <time>2021-02-25T13:12:53Z</time>
      </trkpt>
      <trkpt lat="45.72613" lon="-1.11419">
        <ele>-33.51</ele>
        <time>2021-02-25T13:13:03Z</time>
      </trkpt>
      <trkpt lat="45.72625" lon="-1.11437">
        <ele>-33.51</ele>
        <time>2021-02-25T13:13:13Z</time>
      </trkpt>
      <trkpt lat="45.72635" lon="-1.11452">
        <ele>-33.03</ele>
        <time>2021-02-25T13:13:21Z</time>
      </trkpt>
      <trkpt lat="45.72643" lon="-1.11465">
        <ele>-33.51</ele>
        <time>2021-02-25T13:13:29Z</time>
      </trkpt>
      <trkpt lat="45.72651" lon="-1.11477">
        <ele>-33.51</ele>
        <time>2021-02-25T13:13:38Z</time>
      </trkpt>
      <trkpt lat="45.72659" lon="-1.11489">
        <ele>-33.51</ele>
        <time>2021-02-25T13:13:46Z</time>
      </trkpt>
      <trkpt lat="45.72668" lon="-1.115">
        <ele>-33.03</ele>
        <time>2021-02-25T13:13:54Z</time>
      </trkpt>
      <trkpt lat="45.72677" lon="-1.11512">
        <ele>-33.03</ele>
        <time>2021-02-25T13:14:04Z</time>
      </trkpt>
      <trkpt lat="45.72684" lon="-1.11523">
        <ele>-32.55</ele>
        <time>2021-02-25T13:14:12Z</time>
      </trkpt>
      <trkpt lat="45.72691" lon="-1.11534">
        <ele>-32.55</ele>
        <time>2021-02-25T13:14:20Z</time>
      </trkpt>
      <trkpt lat="45.72699" lon="-1.11545">
        <ele>-32.55</ele>
        <time>2021-02-25T13:14:28Z</time>
      </trkpt>
      <trkpt lat="45.72707" lon="-1.11555">
        <ele>-32.07</ele>
        <time>2021-02-25T13:14:36Z</time>
      </trkpt>
      <trkpt lat="45.72712" lon="-1.11565">
        <ele>-32.07</ele>
        <time>2021-02-25T13:14:45Z</time>
      </trkpt>
      <trkpt lat="45.72713" lon="-1.11577">
        <ele>-32.07</ele>
        <time>2021-02-25T13:14:53Z</time>
      </trkpt>
      <trkpt lat="45.7271" lon="-1.11589">
        <ele>-32.07</ele>
        <time>2021-02-25T13:15:07Z</time>
      </trkpt>
      <trkpt lat="45.72703" lon="-1.11602">
        <ele>-31.59</ele>
        <time>2021-02-25T13:15:21Z</time>
      </trkpt>
      <trkpt lat="45.727" lon="-1.11614">
        <ele>-31.11</ele>
        <time>2021-02-25T13:15:32Z</time>
      </trkpt>
      <trkpt lat="45.72697" lon="-1.11628">
        <ele>-31.11</ele>
        <time>2021-02-25T13:15:40Z</time>
      </trkpt>
      <trkpt lat="45.72692" lon="-1.11639">
        <ele>-31.11</ele>
        <time>2021-02-25T13:15:46Z</time>
      </trkpt>
      <trkpt lat="45.72689" lon="-1.11651">
        <ele>-31.11</ele>
        <time>2021-02-25T13:15:53Z</time>
      </trkpt>
      <trkpt lat="45.72685" lon="-1.11664">
        <ele>-29.66</ele>
        <time>2021-02-25T13:16:00Z</time>
      </trkpt>
      <trkpt lat="45.72682" lon="-1.11678">
        <ele>-30.62</ele>
        <time>2021-02-25T13:16:07Z</time>
      </trkpt>
      <trkpt lat="45.72678" lon="-1.11691">
        <ele>-30.14</ele>
        <time>2021-02-25T13:16:16Z</time>
      </trkpt>
      <trkpt lat="45.72673" lon="-1.11708">
        <ele>-29.18</ele>
        <time>2021-02-25T13:16:29Z</time>
      </trkpt>
      <trkpt lat="45.7267" lon="-1.11726">
        <ele>-29.18</ele>
        <time>2021-02-25T13:16:42Z</time>
      </trkpt>
      <trkpt lat="45.72668" lon="-1.11743">
        <ele>-28.7</ele>
        <time>2021-02-25T13:16:57Z</time>
      </trkpt>
      <trkpt lat="45.72664" lon="-1.11779">
        <ele>-27.74</ele>
        <time>2021-02-25T13:17:18Z</time>
      </trkpt>
      <trkpt lat="45.72662" lon="-1.1182">
        <ele>-27.26</ele>
        <time>2021-02-25T13:17:41Z</time>
      </trkpt>
      <trkpt lat="45.72664" lon="-1.11855">
        <ele>-26.3</ele>
        <time>2021-02-25T13:17:57Z</time>
      </trkpt>
      <trkpt lat="45.72664" lon="-1.11869">
        <ele>-25.82</ele>
        <time>2021-02-25T13:18:05Z</time>
      </trkpt>
      <trkpt lat="45.72664" lon="-1.11886">
        <ele>-25.34</ele>
        <time>2021-02-25T13:18:15Z</time>
      </trkpt>
      <trkpt lat="45.72664" lon="-1.11903">
        <ele>-25.34</ele>
        <time>2021-02-25T13:18:23Z</time>
      </trkpt>
      <trkpt lat="45.72666" lon="-1.11921">
        <ele>-24.86</ele>
        <time>2021-02-25T13:18:31Z</time>
      </trkpt>
      <trkpt lat="45.72666" lon="-1.11935">
        <ele>-24.86</ele>
        <time>2021-02-25T13:18:38Z</time>
      </trkpt>
      <trkpt lat="45.72667" lon="-1.11955">
        <ele>-23.9</ele>
        <time>2021-02-25T13:18:47Z</time>
      </trkpt>
      <trkpt lat="45.72666" lon="-1.11972">
        <ele>-23.9</ele>
        <time>2021-02-25T13:18:56Z</time>
      </trkpt>
      <trkpt lat="45.72666" lon="-1.11987">
        <ele>-22.93</ele>
        <time>2021-02-25T13:19:05Z</time>
      </trkpt>
      <trkpt lat="45.72668" lon="-1.12009">
        <ele>-22.93</ele>
        <time>2021-02-25T13:19:13Z</time>
      </trkpt>
      <trkpt lat="45.72663" lon="-1.12032">
        <ele>-22.93</ele>
        <time>2021-02-25T13:19:22Z</time>
      </trkpt>
      <trkpt lat="45.72655" lon="-1.12047">
        <ele>-22.93</ele>
        <time>2021-02-25T13:19:31Z</time>
      </trkpt>
      <trkpt lat="45.72655" lon="-1.1206">
        <ele>-22.93</ele>
        <time>2021-02-25T13:19:41Z</time>
      </trkpt>
      <trkpt lat="45.72658" lon="-1.12075">
        <ele>-22.93</ele>
        <time>2021-02-25T13:19:49Z</time>
      </trkpt>
      <trkpt lat="45.72663" lon="-1.1209">
        <ele>-22.93</ele>
        <time>2021-02-25T13:19:58Z</time>
      </trkpt>
      <trkpt lat="45.72669" lon="-1.12103">
        <ele>-22.45</ele>
        <time>2021-02-25T13:20:06Z</time>
      </trkpt>
      <trkpt lat="45.72675" lon="-1.12115">
        <ele>-22.45</ele>
        <time>2021-02-25T13:20:13Z</time>
      </trkpt>
      <trkpt lat="45.72681" lon="-1.12129">
        <ele>-22.45</ele>
        <time>2021-02-25T13:20:22Z</time>
      </trkpt>
      <trkpt lat="45.72685" lon="-1.12141">
        <ele>-22.45</ele>
        <time>2021-02-25T13:20:30Z</time>
      </trkpt>
      <trkpt lat="45.7269" lon="-1.12154">
        <ele>-22.45</ele>
        <time>2021-02-25T13:20:38Z</time>
      </trkpt>
      <trkpt lat="45.72695" lon="-1.12167">
        <ele>-21.97</ele>
        <time>2021-02-25T13:20:46Z</time>
      </trkpt>
      <trkpt lat="45.727" lon="-1.12179">
        <ele>-21.97</ele>
        <time>2021-02-25T13:20:54Z</time>
      </trkpt>
      <trkpt lat="45.72704" lon="-1.12191">
        <ele>-21.97</ele>
        <time>2021-02-25T13:21:02Z</time>
      </trkpt>
      <trkpt lat="45.72708" lon="-1.12203">
        <ele>-21.49</ele>
        <time>2021-02-25T13:21:10Z</time>
      </trkpt>
      <trkpt lat="45.72713" lon="-1.12215">
        <ele>-21.49</ele>
        <time>2021-02-25T13:21:18Z</time>
      </trkpt>
      <trkpt lat="45.72718" lon="-1.12227">
        <ele>-21.49</ele>
        <time>2021-02-25T13:21:26Z</time>
      </trkpt>
      <trkpt lat="45.72725" lon="-1.12229">
        <ele>-21.49</ele>
        <time>2021-02-25T13:21:35Z</time>
      </trkpt>
      <trkpt lat="45.72734" lon="-1.12223">
        <ele>-21.49</ele>
        <time>2021-02-25T13:21:45Z</time>
      </trkpt>
      <trkpt lat="45.72741" lon="-1.12215">
        <ele>-21.49</ele>
        <time>2021-02-25T13:21:54Z</time>
      </trkpt>
      <trkpt lat="45.72751" lon="-1.12206">
        <ele>-21.01</ele>
        <time>2021-02-25T13:22:03Z</time>
      </trkpt>
      <trkpt lat="45.72759" lon="-1.12198">
        <ele>-20.53</ele>
        <time>2021-02-25T13:22:11Z</time>
      </trkpt>
      <trkpt lat="45.72767" lon="-1.12189">
        <ele>-20.53</ele>
        <time>2021-02-25T13:22:19Z</time>
      </trkpt>
      <trkpt lat="45.72774" lon="-1.1218">
        <ele>-20.53</ele>
        <time>2021-02-25T13:22:27Z</time>
      </trkpt>
      <trkpt lat="45.72783" lon="-1.12172">
        <ele>-20.05</ele>
        <time>2021-02-25T13:22:35Z</time>
      </trkpt>
      <trkpt lat="45.7279" lon="-1.12162">
        <ele>-20.05</ele>
        <time>2021-02-25T13:22:44Z</time>
      </trkpt>
      <trkpt lat="45.72798" lon="-1.12154">
        <ele>-20.05</ele>
        <time>2021-02-25T13:22:52Z</time>
      </trkpt>
      <trkpt lat="45.72806" lon="-1.12144">
        <ele>-20.05</ele>
        <time>2021-02-25T13:23:00Z</time>
      </trkpt>
      <trkpt lat="45.72814" lon="-1.12135">
        <ele>-19.57</ele>
        <time>2021-02-25T13:23:08Z</time>
      </trkpt>
      <trkpt lat="45.72822" lon="-1.12126">
        <ele>-19.57</ele>
        <time>2021-02-25T13:23:16Z</time>
      </trkpt>
      <trkpt lat="45.72829" lon="-1.12117">
        <ele>-19.09</ele>
        <time>2021-02-25T13:23:24Z</time>
      </trkpt>
      <trkpt lat="45.72836" lon="-1.12109">
        <ele>-19.09</ele>
        <time>2021-02-25T13:23:31Z</time>
      </trkpt>
      <trkpt lat="45.72844" lon="-1.12101">
        <ele>-19.09</ele>
        <time>2021-02-25T13:23:39Z</time>
      </trkpt>
      <trkpt lat="45.72851" lon="-1.12093">
        <ele>-18.61</ele>
        <time>2021-02-25T13:23:47Z</time>
      </trkpt>
      <trkpt lat="45.72859" lon="-1.12083">
        <ele>-18.61</ele>
        <time>2021-02-25T13:23:55Z</time>
      </trkpt>
      <trkpt lat="45.72866" lon="-1.12075">
        <ele>-18.61</ele>
        <time>2021-02-25T13:24:03Z</time>
      </trkpt>
      <trkpt lat="45.72873" lon="-1.12067">
        <ele>-18.13</ele>
        <time>2021-02-25T13:24:11Z</time>
      </trkpt>
      <trkpt lat="45.72881" lon="-1.12059">
        <ele>-17.65</ele>
        <time>2021-02-25T13:24:18Z</time>
      </trkpt>
      <trkpt lat="45.72888" lon="-1.1205">
        <ele>-17.65</ele>
        <time>2021-02-25T13:24:26Z</time>
      </trkpt>
      <trkpt lat="45.72895" lon="-1.12043">
        <ele>-17.17</ele>
        <time>2021-02-25T13:24:34Z</time>
      </trkpt>
      <trkpt lat="45.72902" lon="-1.12036">
        <ele>-17.17</ele>
        <time>2021-02-25T13:24:42Z</time>
      </trkpt>
      <trkpt lat="45.7291" lon="-1.12026">
        <ele>-16.69</ele>
        <time>2021-02-25T13:24:51Z</time>
      </trkpt>
      <trkpt lat="45.72918" lon="-1.12019">
        <ele>-16.21</ele>
        <time>2021-02-25T13:24:59Z</time>
      </trkpt>
      <trkpt lat="45.72925" lon="-1.1201">
        <ele>-16.21</ele>
        <time>2021-02-25T13:25:07Z</time>
      </trkpt>
      <trkpt lat="45.72932" lon="-1.12002">
        <ele>-16.21</ele>
        <time>2021-02-25T13:25:15Z</time>
      </trkpt>
      <trkpt lat="45.7294" lon="-1.11993">
        <ele>-15.72</ele>
        <time>2021-02-25T13:25:23Z</time>
      </trkpt>
      <trkpt lat="45.72947" lon="-1.11985">
        <ele>-15.72</ele>
        <time>2021-02-25T13:25:31Z</time>
      </trkpt>
      <trkpt lat="45.72954" lon="-1.11977">
        <ele>-16.21</ele>
        <time>2021-02-25T13:25:39Z</time>
      </trkpt>
      <trkpt lat="45.72962" lon="-1.11969">
        <ele>-16.21</ele>
        <time>2021-02-25T13:25:47Z</time>
      </trkpt>
      <trkpt lat="45.72969" lon="-1.1196">
        <ele>-16.21</ele>
        <time>2021-02-25T13:25:55Z</time>
      </trkpt>
      <trkpt lat="45.72977" lon="-1.11952">
        <ele>-15.72</ele>
        <time>2021-02-25T13:26:03Z</time>
      </trkpt>
      <trkpt lat="45.72985" lon="-1.11943">
        <ele>-15.72</ele>
        <time>2021-02-25T13:26:11Z</time>
      </trkpt>
      <trkpt lat="45.72993" lon="-1.11935">
        <ele>-15.72</ele>
        <time>2021-02-25T13:26:19Z</time>
      </trkpt>
      <trkpt lat="45.73" lon="-1.11927">
        <ele>-15.24</ele>
        <time>2021-02-25T13:26:27Z</time>
      </trkpt>
      <trkpt lat="45.73007" lon="-1.11918">
        <ele>-15.24</ele>
        <time>2021-02-25T13:26:35Z</time>
      </trkpt>
      <trkpt lat="45.73016" lon="-1.11909">
        <ele>-15.24</ele>
        <time>2021-02-25T13:26:43Z</time>
      </trkpt>
      <trkpt lat="45.73023" lon="-1.11901">
        <ele>-15.24</ele>
        <time>2021-02-25T13:26:51Z</time>
      </trkpt>
      <trkpt lat="45.73031" lon="-1.11893">
        <ele>-15.24</ele>
        <time>2021-02-25T13:26:59Z</time>
      </trkpt>
      <trkpt lat="45.73038" lon="-1.11884">
        <ele>-15.24</ele>
        <time>2021-02-25T13:27:07Z</time>
      </trkpt>
      <trkpt lat="45.73045" lon="-1.11877">
        <ele>-14.76</ele>
        <time>2021-02-25T13:27:14Z</time>
      </trkpt>
      <trkpt lat="45.73052" lon="-1.11869">
        <ele>-14.28</ele>
        <time>2021-02-25T13:27:22Z</time>
      </trkpt>
      <trkpt lat="45.73059" lon="-1.11861">
        <ele>-14.28</ele>
        <time>2021-02-25T13:27:30Z</time>
      </trkpt>
      <trkpt lat="45.73068" lon="-1.11856">
        <ele>-14.76</ele>
        <time>2021-02-25T13:27:40Z</time>
      </trkpt>
      <trkpt lat="45.73076" lon="-1.11847">
        <ele>-14.28</ele>
        <time>2021-02-25T13:27:48Z</time>
      </trkpt>
      <trkpt lat="45.73085" lon="-1.1184">
        <ele>-14.28</ele>
        <time>2021-02-25T13:27:56Z</time>
      </trkpt>
      <trkpt lat="45.73093" lon="-1.11832">
        <ele>-14.28</ele>
        <time>2021-02-25T13:28:03Z</time>
      </trkpt>
      <trkpt lat="45.73101" lon="-1.11824">
        <ele>-14.28</ele>
        <time>2021-02-25T13:28:10Z</time>
      </trkpt>
      <trkpt lat="45.7311" lon="-1.11817">
        <ele>-13.8</ele>
        <time>2021-02-25T13:28:17Z</time>
      </trkpt>
      <trkpt lat="45.73117" lon="-1.11811">
        <ele>-13.8</ele>
        <time>2021-02-25T13:28:23Z</time>
      </trkpt>
      <trkpt lat="45.73125" lon="-1.11805">
        <ele>-13.32</ele>
        <time>2021-02-25T13:28:29Z</time>
      </trkpt>
      <trkpt lat="45.73132" lon="-1.11798">
        <ele>-13.8</ele>
        <time>2021-02-25T13:28:35Z</time>
      </trkpt>
      <trkpt lat="45.7314" lon="-1.11791">
        <ele>-13.8</ele>
        <time>2021-02-25T13:28:42Z</time>
      </trkpt>
      <trkpt lat="45.73148" lon="-1.11786">
        <ele>-13.32</ele>
        <time>2021-02-25T13:28:50Z</time>
      </trkpt>
      <trkpt lat="45.73157" lon="-1.11778">
        <ele>-13.8</ele>
        <time>2021-02-25T13:28:58Z</time>
      </trkpt>
      <trkpt lat="45.73165" lon="-1.11772">
        <ele>-13.8</ele>
        <time>2021-02-25T13:29:05Z</time>
      </trkpt>
      <trkpt lat="45.73173" lon="-1.11765">
        <ele>-13.32</ele>
        <time>2021-02-25T13:29:13Z</time>
      </trkpt>
      <trkpt lat="45.73181" lon="-1.11759">
        <ele>-13.32</ele>
        <time>2021-02-25T13:29:20Z</time>
      </trkpt>
      <trkpt lat="45.73188" lon="-1.11752">
        <ele>-13.32</ele>
        <time>2021-02-25T13:29:27Z</time>
      </trkpt>
      <trkpt lat="45.73196" lon="-1.11745">
        <ele>-13.32</ele>
        <time>2021-02-25T13:29:34Z</time>
      </trkpt>
      <trkpt lat="45.73205" lon="-1.11739">
        <ele>-13.32</ele>
        <time>2021-02-25T13:29:42Z</time>
      </trkpt>
      <trkpt lat="45.73212" lon="-1.11731">
        <ele>-13.32</ele>
        <time>2021-02-25T13:29:50Z</time>
      </trkpt>
      <trkpt lat="45.73221" lon="-1.11725">
        <ele>-13.32</ele>
        <time>2021-02-25T13:29:58Z</time>
      </trkpt>
      <trkpt lat="45.73229" lon="-1.11718">
        <ele>-13.32</ele>
        <time>2021-02-25T13:30:06Z</time>
      </trkpt>
      <trkpt lat="45.73237" lon="-1.11712">
        <ele>-13.32</ele>
        <time>2021-02-25T13:30:13Z</time>
      </trkpt>
      <trkpt lat="45.73245" lon="-1.11705">
        <ele>-12.84</ele>
        <time>2021-02-25T13:30:21Z</time>
      </trkpt>
      <trkpt lat="45.73254" lon="-1.11699">
        <ele>-12.84</ele>
        <time>2021-02-25T13:30:29Z</time>
      </trkpt>
      <trkpt lat="45.73262" lon="-1.11692">
        <ele>-12.84</ele>
        <time>2021-02-25T13:30:37Z</time>
      </trkpt>
      <trkpt lat="45.7327" lon="-1.11685">
        <ele>-12.36</ele>
        <time>2021-02-25T13:30:45Z</time>
      </trkpt>
      <trkpt lat="45.73278" lon="-1.11677">
        <ele>-12.36</ele>
        <time>2021-02-25T13:30:53Z</time>
      </trkpt>
      <trkpt lat="45.73286" lon="-1.1167">
        <ele>-12.36</ele>
        <time>2021-02-25T13:31:00Z</time>
      </trkpt>
      <trkpt lat="45.73294" lon="-1.11665">
        <ele>-11.4</ele>
        <time>2021-02-25T13:31:08Z</time>
      </trkpt>
      <trkpt lat="45.73303" lon="-1.11658">
        <ele>-10.92</ele>
        <time>2021-02-25T13:31:17Z</time>
      </trkpt>
      <trkpt lat="45.733" lon="-1.11646">
        <ele>-9.96</ele>
        <time>2021-02-25T13:31:26Z</time>
      </trkpt>
      <trkpt lat="45.73296" lon="-1.11633">
        <ele>-9.96</ele>
        <time>2021-02-25T13:31:34Z</time>
      </trkpt>
      <trkpt lat="45.73291" lon="-1.11622">
        <ele>-9.96</ele>
        <time>2021-02-25T13:31:42Z</time>
      </trkpt>
      <trkpt lat="45.73286" lon="-1.11607">
        <ele>-9.96</ele>
        <time>2021-02-25T13:31:50Z</time>
      </trkpt>
      <trkpt lat="45.73282" lon="-1.11595">
        <ele>-9.96</ele>
        <time>2021-02-25T13:31:57Z</time>
      </trkpt>
      <trkpt lat="45.73279" lon="-1.11584">
        <ele>-10.44</ele>
        <time>2021-02-25T13:32:03Z</time>
      </trkpt>
      <trkpt lat="45.73274" lon="-1.11573">
        <ele>-10.44</ele>
        <time>2021-02-25T13:32:10Z</time>
      </trkpt>
      <trkpt lat="45.73269" lon="-1.11563">
        <ele>-10.44</ele>
        <time>2021-02-25T13:32:17Z</time>
      </trkpt>
      <trkpt lat="45.73263" lon="-1.11551">
        <ele>-9.96</ele>
        <time>2021-02-25T13:32:26Z</time>
      </trkpt>
      <trkpt lat="45.73258" lon="-1.11538">
        <ele>-9.96</ele>
        <time>2021-02-25T13:32:34Z</time>
      </trkpt>
      <trkpt lat="45.73255" lon="-1.11526">
        <ele>-9.96</ele>
        <time>2021-02-25T13:32:41Z</time>
      </trkpt>
      <trkpt lat="45.73251" lon="-1.11514">
        <ele>-9.48</ele>
        <time>2021-02-25T13:32:47Z</time>
      </trkpt>
      <trkpt lat="45.73247" lon="-1.11503">
        <ele>-9.48</ele>
        <time>2021-02-25T13:32:54Z</time>
      </trkpt>
      <trkpt lat="45.73241" lon="-1.11493">
        <ele>-9.48</ele>
        <time>2021-02-25T13:33:01Z</time>
      </trkpt>
      <trkpt lat="45.73236" lon="-1.11481">
        <ele>-9</ele>
        <time>2021-02-25T13:33:09Z</time>
      </trkpt>
      <trkpt lat="45.73232" lon="-1.11467">
        <ele>-9</ele>
        <time>2021-02-25T13:33:17Z</time>
      </trkpt>
      <trkpt lat="45.73228" lon="-1.11456">
        <ele>-9</ele>
        <time>2021-02-25T13:33:23Z</time>
      </trkpt>
      <trkpt lat="45.73223" lon="-1.11444">
        <ele>-8.51</ele>
        <time>2021-02-25T13:33:31Z</time>
      </trkpt>
      <trkpt lat="45.73217" lon="-1.11431">
        <ele>-8.51</ele>
        <time>2021-02-25T13:33:39Z</time>
      </trkpt>
      <trkpt lat="45.73214" lon="-1.11419">
        <ele>-8.03</ele>
        <time>2021-02-25T13:33:46Z</time>
      </trkpt>
      <trkpt lat="45.73209" lon="-1.11407">
        <ele>-8.03</ele>
        <time>2021-02-25T13:33:54Z</time>
      </trkpt>
      <trkpt lat="45.73205" lon="-1.11394">
        <ele>-8.03</ele>
        <time>2021-02-25T13:34:01Z</time>
      </trkpt>
      <trkpt lat="45.732" lon="-1.11384">
        <ele>-8.03</ele>
        <time>2021-02-25T13:34:08Z</time>
      </trkpt>
      <trkpt lat="45.73195" lon="-1.11371">
        <ele>-8.51</ele>
        <time>2021-02-25T13:34:16Z</time>
      </trkpt>
      <trkpt lat="45.73191" lon="-1.11359">
        <ele>-8.03</ele>
        <time>2021-02-25T13:34:23Z</time>
      </trkpt>
      <trkpt lat="45.73187" lon="-1.11349">
        <ele>-8.03</ele>
        <time>2021-02-25T13:34:30Z</time>
      </trkpt>
      <trkpt lat="45.73182" lon="-1.11336">
        <ele>-8.03</ele>
        <time>2021-02-25T13:34:38Z</time>
      </trkpt>
      <trkpt lat="45.73177" lon="-1.11326">
        <ele>-8.03</ele>
        <time>2021-02-25T13:34:46Z</time>
      </trkpt>
      <trkpt lat="45.73173" lon="-1.11314">
        <ele>-8.03</ele>
        <time>2021-02-25T13:34:53Z</time>
      </trkpt>
      <trkpt lat="45.73167" lon="-1.11303">
        <ele>-8.03</ele>
        <time>2021-02-25T13:35:01Z</time>
      </trkpt>
      <trkpt lat="45.73164" lon="-1.11289">
        <ele>-8.51</ele>
        <time>2021-02-25T13:35:08Z</time>
      </trkpt>
      <trkpt lat="45.7316" lon="-1.11279">
        <ele>-7.55</ele>
        <time>2021-02-25T13:35:15Z</time>
      </trkpt>
      <trkpt lat="45.73154" lon="-1.11269">
        <ele>-8.51</ele>
        <time>2021-02-25T13:35:23Z</time>
      </trkpt>
      <trkpt lat="45.7315" lon="-1.11256">
        <ele>-8.51</ele>
        <time>2021-02-25T13:35:30Z</time>
      </trkpt>
      <trkpt lat="45.73144" lon="-1.11244">
        <ele>-9</ele>
        <time>2021-02-25T13:35:37Z</time>
      </trkpt>
      <trkpt lat="45.7314" lon="-1.1123">
        <ele>-9</ele>
        <time>2021-02-25T13:35:43Z</time>
      </trkpt>
      <trkpt lat="45.73136" lon="-1.11219">
        <ele>-9</ele>
        <time>2021-02-25T13:35:49Z</time>
      </trkpt>
      <trkpt lat="45.73131" lon="-1.11206">
        <ele>-9</ele>
        <time>2021-02-25T13:35:55Z</time>
      </trkpt>
      <trkpt lat="45.73127" lon="-1.11194">
        <ele>-8.03</ele>
        <time>2021-02-25T13:36:02Z</time>
      </trkpt>
      <trkpt lat="45.73122" lon="-1.11181">
        <ele>-9.48</ele>
        <time>2021-02-25T13:36:08Z</time>
      </trkpt>
      <trkpt lat="45.73118" lon="-1.1117">
        <ele>-9.48</ele>
        <time>2021-02-25T13:36:14Z</time>
      </trkpt>
      <trkpt lat="45.73112" lon="-1.1116">
        <ele>-9</ele>
        <time>2021-02-25T13:36:20Z</time>
      </trkpt>
      <trkpt lat="45.73108" lon="-1.11149">
        <ele>-9.48</ele>
        <time>2021-02-25T13:36:26Z</time>
      </trkpt>
      <trkpt lat="45.73103" lon="-1.11138">
        <ele>-9.96</ele>
        <time>2021-02-25T13:36:32Z</time>
      </trkpt>
      <trkpt lat="45.731" lon="-1.11127">
        <ele>-9.96</ele>
        <time>2021-02-25T13:36:38Z</time>
      </trkpt>
      <trkpt lat="45.73095" lon="-1.11116">
        <ele>-9.96</ele>
        <time>2021-02-25T13:36:45Z</time>
      </trkpt>
      <trkpt lat="45.73089" lon="-1.11104">
        <ele>-9.96</ele>
        <time>2021-02-25T13:36:52Z</time>
      </trkpt>
      <trkpt lat="45.73085" lon="-1.11092">
        <ele>-9.96</ele>
        <time>2021-02-25T13:36:58Z</time>
      </trkpt>
      <trkpt lat="45.73081" lon="-1.1108">
        <ele>-9.96</ele>
        <time>2021-02-25T13:37:05Z</time>
      </trkpt>
      <trkpt lat="45.73077" lon="-1.11067">
        <ele>-9.96</ele>
        <time>2021-02-25T13:37:11Z</time>
      </trkpt>
      <trkpt lat="45.73073" lon="-1.11057">
        <ele>-9.96</ele>
        <time>2021-02-25T13:37:17Z</time>
      </trkpt>
      <trkpt lat="45.73068" lon="-1.11046">
        <ele>-9.96</ele>
        <time>2021-02-25T13:37:24Z</time>
      </trkpt>
      <trkpt lat="45.73061" lon="-1.11038">
        <ele>-8.51</ele>
        <time>2021-02-25T13:37:33Z</time>
      </trkpt>
      <trkpt lat="45.73053" lon="-1.11047">
        <ele>-9.48</ele>
        <time>2021-02-25T13:37:41Z</time>
      </trkpt>
      <trkpt lat="45.73045" lon="-1.11055">
        <ele>-9.96</ele>
        <time>2021-02-25T13:37:48Z</time>
      </trkpt>
      <trkpt lat="45.73039" lon="-1.11064">
        <ele>-10.44</ele>
        <time>2021-02-25T13:37:55Z</time>
      </trkpt>
      <trkpt lat="45.73032" lon="-1.11073">
        <ele>-10.44</ele>
        <time>2021-02-25T13:38:01Z</time>
      </trkpt>
      <trkpt lat="45.73026" lon="-1.11083">
        <ele>-10.44</ele>
        <time>2021-02-25T13:38:07Z</time>
      </trkpt>
      <trkpt lat="45.73019" lon="-1.11093">
        <ele>-10.44</ele>
        <time>2021-02-25T13:38:14Z</time>
      </trkpt>
      <trkpt lat="45.73012" lon="-1.11103">
        <ele>-10.92</ele>
        <time>2021-02-25T13:38:21Z</time>
      </trkpt>
      <trkpt lat="45.73005" lon="-1.11113">
        <ele>-11.4</ele>
        <time>2021-02-25T13:38:28Z</time>
      </trkpt>
      <trkpt lat="45.72999" lon="-1.11121">
        <ele>-11.4</ele>
        <time>2021-02-25T13:38:34Z</time>
      </trkpt>
      <trkpt lat="45.72992" lon="-1.11132">
        <ele>-10.92</ele>
        <time>2021-02-25T13:38:41Z</time>
      </trkpt>
      <trkpt lat="45.72987" lon="-1.11141">
        <ele>-10.92</ele>
        <time>2021-02-25T13:38:48Z</time>
      </trkpt>
      <trkpt lat="45.72981" lon="-1.11151">
        <ele>-11.4</ele>
        <time>2021-02-25T13:38:56Z</time>
      </trkpt>
      <trkpt lat="45.72973" lon="-1.1116">
        <ele>-10.92</ele>
        <time>2021-02-25T13:39:04Z</time>
      </trkpt>
      <trkpt lat="45.72967" lon="-1.1117">
        <ele>-10.92</ele>
        <time>2021-02-25T13:39:11Z</time>
      </trkpt>
      <trkpt lat="45.72961" lon="-1.11179">
        <ele>-10.92</ele>
        <time>2021-02-25T13:39:18Z</time>
      </trkpt>
      <trkpt lat="45.72954" lon="-1.11189">
        <ele>-10.92</ele>
        <time>2021-02-25T13:39:27Z</time>
      </trkpt>
      <trkpt lat="45.72948" lon="-1.11198">
        <ele>-10.44</ele>
        <time>2021-02-25T13:39:34Z</time>
      </trkpt>
      <trkpt lat="45.72942" lon="-1.11209">
        <ele>-10.44</ele>
        <time>2021-02-25T13:39:41Z</time>
      </trkpt>
      <trkpt lat="45.72935" lon="-1.11218">
        <ele>-10.44</ele>
        <time>2021-02-25T13:39:49Z</time>
      </trkpt>
      <trkpt lat="45.72927" lon="-1.11221">
        <ele>-10.92</ele>
        <time>2021-02-25T13:39:57Z</time>
      </trkpt>
      <trkpt lat="45.72919" lon="-1.11213">
        <ele>-10.92</ele>
        <time>2021-02-25T13:40:05Z</time>
      </trkpt>
      <trkpt lat="45.72911" lon="-1.11208">
        <ele>-11.4</ele>
        <time>2021-02-25T13:40:12Z</time>
      </trkpt>
      <trkpt lat="45.72904" lon="-1.112">
        <ele>-11.4</ele>
        <time>2021-02-25T13:40:19Z</time>
      </trkpt>
      <trkpt lat="45.72897" lon="-1.11192">
        <ele>-10.92</ele>
        <time>2021-02-25T13:40:27Z</time>
      </trkpt>
      <trkpt lat="45.72889" lon="-1.11183">
        <ele>-11.88</ele>
        <time>2021-02-25T13:40:36Z</time>
      </trkpt>
      <trkpt lat="45.72881" lon="-1.11175">
        <ele>-11.88</ele>
        <time>2021-02-25T13:40:46Z</time>
      </trkpt>
      <trkpt lat="45.72873" lon="-1.11165">
        <ele>-11.88</ele>
        <time>2021-02-25T13:40:58Z</time>
      </trkpt>
      <trkpt lat="45.72866" lon="-1.11152">
        <ele>-11.88</ele>
        <time>2021-02-25T13:41:09Z</time>
      </trkpt>
      <trkpt lat="45.72858" lon="-1.1114">
        <ele>-11.88</ele>
        <time>2021-02-25T13:41:18Z</time>
      </trkpt>
      <trkpt lat="45.7285" lon="-1.11129">
        <ele>-11.4</ele>
        <time>2021-02-25T13:41:27Z</time>
      </trkpt>
      <trkpt lat="45.72844" lon="-1.11118">
        <ele>-11.4</ele>
        <time>2021-02-25T13:41:34Z</time>
      </trkpt>
      <trkpt lat="45.72836" lon="-1.11106">
        <ele>-10.92</ele>
        <time>2021-02-25T13:41:42Z</time>
      </trkpt>
      <trkpt lat="45.72829" lon="-1.11094">
        <ele>-10.92</ele>
        <time>2021-02-25T13:41:50Z</time>
      </trkpt>
      <trkpt lat="45.72821" lon="-1.11083">
        <ele>-9.96</ele>
        <time>2021-02-25T13:41:58Z</time>
      </trkpt>
      <trkpt lat="45.72814" lon="-1.11071">
        <ele>-10.44</ele>
        <time>2021-02-25T13:42:06Z</time>
      </trkpt>
      <trkpt lat="45.72807" lon="-1.11058">
        <ele>-9.96</ele>
        <time>2021-02-25T13:42:14Z</time>
      </trkpt>
      <trkpt lat="45.728" lon="-1.11044">
        <ele>-9.48</ele>
        <time>2021-02-25T13:42:22Z</time>
      </trkpt>
      <trkpt lat="45.72794" lon="-1.11032">
        <ele>-9</ele>
        <time>2021-02-25T13:42:29Z</time>
      </trkpt>
      <trkpt lat="45.72788" lon="-1.11022">
        <ele>-9.48</ele>
        <time>2021-02-25T13:42:36Z</time>
      </trkpt>
      <trkpt lat="45.72782" lon="-1.11011">
        <ele>-9.48</ele>
        <time>2021-02-25T13:42:44Z</time>
      </trkpt>
      <trkpt lat="45.72775" lon="-1.10999">
        <ele>-9</ele>
        <time>2021-02-25T13:42:52Z</time>
      </trkpt>
      <trkpt lat="45.72768" lon="-1.10988">
        <ele>-9</ele>
        <time>2021-02-25T13:43:00Z</time>
      </trkpt>
      <trkpt lat="45.7276" lon="-1.1098">
        <ele>-9</ele>
        <time>2021-02-25T13:43:07Z</time>
      </trkpt>
      <trkpt lat="45.72754" lon="-1.1097">
        <ele>-9</ele>
        <time>2021-02-25T13:43:14Z</time>
      </trkpt>
      <trkpt lat="45.72748" lon="-1.1096">
        <ele>-9</ele>
        <time>2021-02-25T13:43:21Z</time>
      </trkpt>
      <trkpt lat="45.72742" lon="-1.10949">
        <ele>-8.03</ele>
        <time>2021-02-25T13:43:29Z</time>
      </trkpt>
      <trkpt lat="45.72737" lon="-1.10936">
        <ele>-8.03</ele>
        <time>2021-02-25T13:43:37Z</time>
      </trkpt>
      <trkpt lat="45.72731" lon="-1.10924">
        <ele>-7.55</ele>
        <time>2021-02-25T13:43:45Z</time>
      </trkpt>
      <trkpt lat="45.72726" lon="-1.10913">
        <ele>-7.55</ele>
        <time>2021-02-25T13:43:52Z</time>
      </trkpt>
      <trkpt lat="45.7272" lon="-1.10902">
        <ele>-7.55</ele>
        <time>2021-02-25T13:44:00Z</time>
      </trkpt>
      <trkpt lat="45.72715" lon="-1.10889">
        <ele>-7.07</ele>
        <time>2021-02-25T13:44:08Z</time>
      </trkpt>
      <trkpt lat="45.72711" lon="-1.10878">
        <ele>-7.07</ele>
        <time>2021-02-25T13:44:15Z</time>
      </trkpt>
      <trkpt lat="45.72705" lon="-1.10869">
        <ele>-6.59</ele>
        <time>2021-02-25T13:44:22Z</time>
      </trkpt>
      <trkpt lat="45.72701" lon="-1.10856">
        <ele>-6.59</ele>
        <time>2021-02-25T13:44:30Z</time>
      </trkpt>
      <trkpt lat="45.72697" lon="-1.10843">
        <ele>-6.59</ele>
        <time>2021-02-25T13:44:38Z</time>
      </trkpt>
      <trkpt lat="45.72689" lon="-1.10836">
        <ele>-6.59</ele>
        <time>2021-02-25T13:44:47Z</time>
      </trkpt>
      <trkpt lat="45.7268" lon="-1.10837">
        <ele>-6.59</ele>
        <time>2021-02-25T13:44:57Z</time>
      </trkpt>
      <trkpt lat="45.72672" lon="-1.10844">
        <ele>-6.59</ele>
        <time>2021-02-25T13:45:04Z</time>
      </trkpt>
      <trkpt lat="45.72663" lon="-1.10851">
        <ele>-7.07</ele>
        <time>2021-02-25T13:45:12Z</time>
      </trkpt>
      <trkpt lat="45.72654" lon="-1.10858">
        <ele>-7.07</ele>
        <time>2021-02-25T13:45:20Z</time>
      </trkpt>
      <trkpt lat="45.72645" lon="-1.10865">
        <ele>-7.07</ele>
        <time>2021-02-25T13:45:27Z</time>
      </trkpt>
      <trkpt lat="45.72636" lon="-1.10873">
        <ele>-7.07</ele>
        <time>2021-02-25T13:45:35Z</time>
      </trkpt>
      <trkpt lat="45.72628" lon="-1.1088">
        <ele>-7.07</ele>
        <time>2021-02-25T13:45:43Z</time>
      </trkpt>
      <trkpt lat="45.7262" lon="-1.10887">
        <ele>-6.59</ele>
        <time>2021-02-25T13:45:51Z</time>
      </trkpt>
      <trkpt lat="45.72611" lon="-1.10894">
        <ele>-6.59</ele>
        <time>2021-02-25T13:45:59Z</time>
      </trkpt>
      <trkpt lat="45.72603" lon="-1.10901">
        <ele>-6.59</ele>
        <time>2021-02-25T13:46:06Z</time>
      </trkpt>
      <trkpt lat="45.72594" lon="-1.10908">
        <ele>-7.07</ele>
        <time>2021-02-25T13:46:14Z</time>
      </trkpt>
      <trkpt lat="45.72585" lon="-1.10916">
        <ele>-7.07</ele>
        <time>2021-02-25T13:46:22Z</time>
      </trkpt>
      <trkpt lat="45.72577" lon="-1.10923">
        <ele>-7.07</ele>
        <time>2021-02-25T13:46:30Z</time>
      </trkpt>
      <trkpt lat="45.72568" lon="-1.1093">
        <ele>-7.07</ele>
        <time>2021-02-25T13:46:38Z</time>
      </trkpt>
      <trkpt lat="45.7256" lon="-1.10937">
        <ele>-7.07</ele>
        <time>2021-02-25T13:46:45Z</time>
      </trkpt>
      <trkpt lat="45.72552" lon="-1.10944">
        <ele>-6.59</ele>
        <time>2021-02-25T13:46:53Z</time>
      </trkpt>
      <trkpt lat="45.72544" lon="-1.1095">
        <ele>-7.07</ele>
        <time>2021-02-25T13:47:00Z</time>
      </trkpt>
      <trkpt lat="45.72535" lon="-1.10957">
        <ele>-7.07</ele>
        <time>2021-02-25T13:47:08Z</time>
      </trkpt>
      <trkpt lat="45.72526" lon="-1.10964">
        <ele>-7.07</ele>
        <time>2021-02-25T13:47:16Z</time>
      </trkpt>
      <trkpt lat="45.72518" lon="-1.10971">
        <ele>-7.07</ele>
        <time>2021-02-25T13:47:24Z</time>
      </trkpt>
      <trkpt lat="45.7251" lon="-1.10977">
        <ele>-7.55</ele>
        <time>2021-02-25T13:47:32Z</time>
      </trkpt>
      <trkpt lat="45.72502" lon="-1.10984">
        <ele>-7.07</ele>
        <time>2021-02-25T13:47:40Z</time>
      </trkpt>
      <trkpt lat="45.72493" lon="-1.10992">
        <ele>-7.07</ele>
        <time>2021-02-25T13:47:49Z</time>
      </trkpt>
      <trkpt lat="45.72484" lon="-1.10996">
        <ele>-6.59</ele>
        <time>2021-02-25T13:47:58Z</time>
      </trkpt>
      <trkpt lat="45.72476" lon="-1.11001">
        <ele>-6.59</ele>
        <time>2021-02-25T13:48:06Z</time>
      </trkpt>
      <trkpt lat="45.72468" lon="-1.11009">
        <ele>-6.59</ele>
        <time>2021-02-25T13:48:14Z</time>
      </trkpt>
      <trkpt lat="45.7246" lon="-1.11016">
        <ele>-7.07</ele>
        <time>2021-02-25T13:48:22Z</time>
      </trkpt>
      <trkpt lat="45.72451" lon="-1.11023">
        <ele>-6.11</ele>
        <time>2021-02-25T13:48:31Z</time>
      </trkpt>
      <trkpt lat="45.72442" lon="-1.11029">
        <ele>-6.11</ele>
        <time>2021-02-25T13:48:40Z</time>
      </trkpt>
      <trkpt lat="45.72433" lon="-1.11037">
        <ele>-6.11</ele>
        <time>2021-02-25T13:48:48Z</time>
      </trkpt>
      <trkpt lat="45.72426" lon="-1.11045">
        <ele>-5.63</ele>
        <time>2021-02-25T13:48:59Z</time>
      </trkpt>
      <trkpt lat="45.7242" lon="-1.11053">
        <ele>-5.63</ele>
        <time>2021-02-25T13:50:04Z</time>
      </trkpt>
      <trkpt lat="45.7242" lon="-1.11048">
        <ele>-5.63</ele>
        <time>2021-02-25T13:50:34Z</time>
      </trkpt>
      <trkpt lat="45.72413" lon="-1.11047">
        <ele>-4.67</ele>
        <time>2021-02-25T13:51:06Z</time>
      </trkpt>
      <trkpt lat="45.72407" lon="-1.11058">
        <ele>-4.67</ele>
        <time>2021-02-25T13:51:17Z</time>
      </trkpt>
      <trkpt lat="45.72403" lon="-1.11071">
        <ele>-5.15</ele>
        <time>2021-02-25T13:51:27Z</time>
      </trkpt>
      <trkpt lat="45.72399" lon="-1.11082">
        <ele>-4.67</ele>
        <time>2021-02-25T13:51:35Z</time>
      </trkpt>
      <trkpt lat="45.72396" lon="-1.11095">
        <ele>-4.67</ele>
        <time>2021-02-25T13:51:43Z</time>
      </trkpt>
      <trkpt lat="45.72391" lon="-1.11106">
        <ele>-3.71</ele>
        <time>2021-02-25T13:51:50Z</time>
      </trkpt>
      <trkpt lat="45.72388" lon="-1.11118">
        <ele>-3.71</ele>
        <time>2021-02-25T13:51:57Z</time>
      </trkpt>
      <trkpt lat="45.72383" lon="-1.11131">
        <ele>-4.67</ele>
        <time>2021-02-25T13:52:05Z</time>
      </trkpt>
      <trkpt lat="45.72379" lon="-1.11143">
        <ele>-4.67</ele>
        <time>2021-02-25T13:52:12Z</time>
      </trkpt>
      <trkpt lat="45.72375" lon="-1.11155">
        <ele>-4.67</ele>
        <time>2021-02-25T13:52:19Z</time>
      </trkpt>
      <trkpt lat="45.72372" lon="-1.11168">
        <ele>-4.67</ele>
        <time>2021-02-25T13:52:27Z</time>
      </trkpt>
      <trkpt lat="45.72369" lon="-1.1118">
        <ele>-4.67</ele>
        <time>2021-02-25T13:52:34Z</time>
      </trkpt>
      <trkpt lat="45.72365" lon="-1.11193">
        <ele>-4.19</ele>
        <time>2021-02-25T13:52:41Z</time>
      </trkpt>
      <trkpt lat="45.7236" lon="-1.11205">
        <ele>-4.19</ele>
        <time>2021-02-25T13:52:49Z</time>
      </trkpt>
      <trkpt lat="45.72356" lon="-1.11217">
        <ele>-4.19</ele>
        <time>2021-02-25T13:52:56Z</time>
      </trkpt>
      <trkpt lat="45.72352" lon="-1.11228">
        <ele>-4.19</ele>
        <time>2021-02-25T13:53:03Z</time>
      </trkpt>
      <trkpt lat="45.72348" lon="-1.11242">
        <ele>-4.19</ele>
        <time>2021-02-25T13:53:11Z</time>
      </trkpt>
      <trkpt lat="45.72345" lon="-1.11254">
        <ele>-4.19</ele>
        <time>2021-02-25T13:53:19Z</time>
      </trkpt>
      <trkpt lat="45.7234" lon="-1.11267">
        <ele>-4.19</ele>
        <time>2021-02-25T13:53:27Z</time>
      </trkpt>
      <trkpt lat="45.72336" lon="-1.11278">
        <ele>-3.71</ele>
        <time>2021-02-25T13:53:34Z</time>
      </trkpt>
      <trkpt lat="45.72333" lon="-1.1129">
        <ele>-4.19</ele>
        <time>2021-02-25T13:53:42Z</time>
      </trkpt>
      <trkpt lat="45.72329" lon="-1.11304">
        <ele>-4.19</ele>
        <time>2021-02-25T13:53:50Z</time>
      </trkpt>
      <trkpt lat="45.72325" lon="-1.11318">
        <ele>-3.71</ele>
        <time>2021-02-25T13:53:58Z</time>
      </trkpt>
      <trkpt lat="45.72321" lon="-1.11329">
        <ele>-4.19</ele>
        <time>2021-02-25T13:54:05Z</time>
      </trkpt>
      <trkpt lat="45.72317" lon="-1.11341">
        <ele>-4.19</ele>
        <time>2021-02-25T13:54:13Z</time>
      </trkpt>
      <trkpt lat="45.72312" lon="-1.11354">
        <ele>-3.71</ele>
        <time>2021-02-25T13:54:20Z</time>
      </trkpt>
      <trkpt lat="45.72308" lon="-1.11366">
        <ele>-3.71</ele>
        <time>2021-02-25T13:54:27Z</time>
      </trkpt>
      <trkpt lat="45.72304" lon="-1.11379">
        <ele>-3.71</ele>
        <time>2021-02-25T13:54:35Z</time>
      </trkpt>
      <trkpt lat="45.723" lon="-1.11393">
        <ele>-4.19</ele>
        <time>2021-02-25T13:54:43Z</time>
      </trkpt>
      <trkpt lat="45.72296" lon="-1.11405">
        <ele>-3.71</ele>
        <time>2021-02-25T13:54:50Z</time>
      </trkpt>
      <trkpt lat="45.72292" lon="-1.11418">
        <ele>-3.71</ele>
        <time>2021-02-25T13:54:58Z</time>
      </trkpt>
      <trkpt lat="45.72288" lon="-1.11431">
        <ele>-2.75</ele>
        <time>2021-02-25T13:55:05Z</time>
      </trkpt>
      <trkpt lat="45.72284" lon="-1.11442">
        <ele>-3.71</ele>
        <time>2021-02-25T13:55:12Z</time>
      </trkpt>
      <trkpt lat="45.7228" lon="-1.11454">
        <ele>-3.23</ele>
        <time>2021-02-25T13:55:19Z</time>
      </trkpt>
      <trkpt lat="45.72276" lon="-1.11466">
        <ele>-3.71</ele>
        <time>2021-02-25T13:55:26Z</time>
      </trkpt>
      <trkpt lat="45.72271" lon="-1.11478">
        <ele>-3.23</ele>
        <time>2021-02-25T13:55:34Z</time>
      </trkpt>
      <trkpt lat="45.72266" lon="-1.1149">
        <ele>-2.75</ele>
        <time>2021-02-25T13:55:41Z</time>
      </trkpt>
      <trkpt lat="45.7226" lon="-1.11501">
        <ele>-3.23</ele>
        <time>2021-02-25T13:55:48Z</time>
      </trkpt>
      <trkpt lat="45.72254" lon="-1.11513">
        <ele>-3.23</ele>
        <time>2021-02-25T13:55:56Z</time>
      </trkpt>
      <trkpt lat="45.72248" lon="-1.11524">
        <ele>-1.79</ele>
        <time>2021-02-25T13:56:04Z</time>
      </trkpt>
      <trkpt lat="45.7224" lon="-1.11535">
        <ele>-2.27</ele>
        <time>2021-02-25T13:56:12Z</time>
      </trkpt>
      <trkpt lat="45.72233" lon="-1.11544">
        <ele>-1.79</ele>
        <time>2021-02-25T13:56:19Z</time>
      </trkpt>
      <trkpt lat="45.72227" lon="-1.11553">
        <ele>-2.27</ele>
        <time>2021-02-25T13:56:27Z</time>
      </trkpt>
      <trkpt lat="45.7222" lon="-1.11563">
        <ele>-1.79</ele>
        <time>2021-02-25T13:56:35Z</time>
      </trkpt>
      <trkpt lat="45.72213" lon="-1.1157">
        <ele>-1.79</ele>
        <time>2021-02-25T13:56:41Z</time>
      </trkpt>
      <trkpt lat="45.72206" lon="-1.11578">
        <ele>-1.79</ele>
        <time>2021-02-25T13:56:48Z</time>
      </trkpt>
      <trkpt lat="45.72198" lon="-1.11586">
        <ele>-0.82</ele>
        <time>2021-02-25T13:56:56Z</time>
      </trkpt>
      <trkpt lat="45.72189" lon="-1.11593">
        <ele>-1.79</ele>
        <time>2021-02-25T13:57:03Z</time>
      </trkpt>
      <trkpt lat="45.72181" lon="-1.11599">
        <ele>-1.79</ele>
        <time>2021-02-25T13:57:10Z</time>
      </trkpt>
      <trkpt lat="45.72172" lon="-1.11606">
        <ele>-1.3</ele>
        <time>2021-02-25T13:57:18Z</time>
      </trkpt>
      <trkpt lat="45.72163" lon="-1.11612">
        <ele>-1.79</ele>
        <time>2021-02-25T13:57:26Z</time>
      </trkpt>
      <trkpt lat="45.72154" lon="-1.11619">
        <ele>-1.3</ele>
        <time>2021-02-25T13:57:34Z</time>
      </trkpt>
      <trkpt lat="45.72145" lon="-1.11625">
        <ele>-1.3</ele>
        <time>2021-02-25T13:57:42Z</time>
      </trkpt>
      <trkpt lat="45.72136" lon="-1.11631">
        <ele>-1.3</ele>
        <time>2021-02-25T13:57:49Z</time>
      </trkpt>
      <trkpt lat="45.72128" lon="-1.11636">
        <ele>-1.79</ele>
        <time>2021-02-25T13:57:56Z</time>
      </trkpt>
      <trkpt lat="45.7212" lon="-1.11641">
        <ele>-1.3</ele>
        <time>2021-02-25T13:58:03Z</time>
      </trkpt>
      <trkpt lat="45.72111" lon="-1.11646">
        <ele>-1.3</ele>
        <time>2021-02-25T13:58:10Z</time>
      </trkpt>
      <trkpt lat="45.72102" lon="-1.11651">
        <ele>-1.3</ele>
        <time>2021-02-25T13:58:17Z</time>
      </trkpt>
      <trkpt lat="45.72093" lon="-1.11656">
        <ele>-1.79</ele>
        <time>2021-02-25T13:58:25Z</time>
      </trkpt>
      <trkpt lat="45.72083" lon="-1.11661">
        <ele>-1.3</ele>
        <time>2021-02-25T13:58:33Z</time>
      </trkpt>
      <trkpt lat="45.72074" lon="-1.11664">
        <ele>-1.79</ele>
        <time>2021-02-25T13:58:41Z</time>
      </trkpt>
      <trkpt lat="45.72064" lon="-1.1167">
        <ele>-1.3</ele>
        <time>2021-02-25T13:58:49Z</time>
      </trkpt>
      <trkpt lat="45.72055" lon="-1.11675">
        <ele>-1.79</ele>
        <time>2021-02-25T13:58:57Z</time>
      </trkpt>
      <trkpt lat="45.72045" lon="-1.11679">
        <ele>-1.79</ele>
        <time>2021-02-25T13:59:05Z</time>
      </trkpt>
      <trkpt lat="45.72037" lon="-1.11683">
        <ele>-1.79</ele>
        <time>2021-02-25T13:59:13Z</time>
      </trkpt>
      <trkpt lat="45.72027" lon="-1.11685">
        <ele>-1.79</ele>
        <time>2021-02-25T13:59:20Z</time>
      </trkpt>
      <trkpt lat="45.72017" lon="-1.1168">
        <ele>-1.3</ele>
        <time>2021-02-25T13:59:28Z</time>
      </trkpt>
      <trkpt lat="45.72011" lon="-1.11669">
        <ele>-0.82</ele>
        <time>2021-02-25T13:59:35Z</time>
      </trkpt>
      <trkpt lat="45.72006" lon="-1.11658">
        <ele>-0.34</ele>
        <time>2021-02-25T13:59:42Z</time>
      </trkpt>
      <trkpt lat="45.72001" lon="-1.11646">
        <ele>1.1</ele>
        <time>2021-02-25T13:59:49Z</time>
      </trkpt>
      <trkpt lat="45.71997" lon="-1.11633">
        <ele>1.58</ele>
        <time>2021-02-25T13:59:58Z</time>
      </trkpt>
      <trkpt lat="45.71992" lon="-1.11621">
        <ele>1.58</ele>
        <time>2021-02-25T14:00:08Z</time>
      </trkpt>
      <trkpt lat="45.71987" lon="-1.11609">
        <ele>2.06</ele>
        <time>2021-02-25T14:00:16Z</time>
      </trkpt>
      <trkpt lat="45.71983" lon="-1.11595">
        <ele>2.06</ele>
        <time>2021-02-25T14:00:24Z</time>
      </trkpt>
      <trkpt lat="45.71978" lon="-1.11582">
        <ele>1.58</ele>
        <time>2021-02-25T14:00:31Z</time>
      </trkpt>
      <trkpt lat="45.71973" lon="-1.11569">
        <ele>1.58</ele>
        <time>2021-02-25T14:00:39Z</time>
      </trkpt>
      <trkpt lat="45.71968" lon="-1.11556">
        <ele>1.1</ele>
        <time>2021-02-25T14:00:46Z</time>
      </trkpt>
      <trkpt lat="45.71963" lon="-1.11542">
        <ele>0.62</ele>
        <time>2021-02-25T14:00:53Z</time>
      </trkpt>
      <trkpt lat="45.71957" lon="-1.11531">
        <ele>0.14</ele>
        <time>2021-02-25T14:01:00Z</time>
      </trkpt>
      <trkpt lat="45.71949" lon="-1.1152">
        <ele>-0.34</ele>
        <time>2021-02-25T14:01:07Z</time>
      </trkpt>
      <trkpt lat="45.71941" lon="-1.11515">
        <ele>-0.82</ele>
        <time>2021-02-25T14:01:13Z</time>
      </trkpt>
      <trkpt lat="45.71932" lon="-1.11509">
        <ele>-0.82</ele>
        <time>2021-02-25T14:01:19Z</time>
      </trkpt>
      <trkpt lat="45.71923" lon="-1.11506">
        <ele>-0.82</ele>
        <time>2021-02-25T14:01:26Z</time>
      </trkpt>
      <trkpt lat="45.71916" lon="-1.1151">
        <ele>-0.82</ele>
        <time>2021-02-25T14:01:32Z</time>
      </trkpt>
      <trkpt lat="45.7191" lon="-1.11518">
        <ele>-0.82</ele>
        <time>2021-02-25T14:01:39Z</time>
      </trkpt>
      <trkpt lat="45.71901" lon="-1.11525">
        <ele>-0.34</ele>
        <time>2021-02-25T14:01:47Z</time>
      </trkpt>
      <trkpt lat="45.71892" lon="-1.11529">
        <ele>-0.34</ele>
        <time>2021-02-25T14:01:55Z</time>
      </trkpt>
      <trkpt lat="45.71882" lon="-1.11532">
        <ele>-0.34</ele>
        <time>2021-02-25T14:02:03Z</time>
      </trkpt>
      <trkpt lat="45.71873" lon="-1.11537">
        <ele>0.14</ele>
        <time>2021-02-25T14:02:10Z</time>
      </trkpt>
      <trkpt lat="45.71863" lon="-1.11543">
        <ele>0.62</ele>
        <time>2021-02-25T14:02:17Z</time>
      </trkpt>
      <trkpt lat="45.71855" lon="-1.11549">
        <ele>1.1</ele>
        <time>2021-02-25T14:02:23Z</time>
      </trkpt>
      <trkpt lat="45.71845" lon="-1.11554">
        <ele>1.58</ele>
        <time>2021-02-25T14:02:30Z</time>
      </trkpt>
      <trkpt lat="45.71837" lon="-1.1156">
        <ele>1.58</ele>
        <time>2021-02-25T14:02:36Z</time>
      </trkpt>
      <trkpt lat="45.71829" lon="-1.11565">
        <ele>2.06</ele>
        <time>2021-02-25T14:02:43Z</time>
      </trkpt>
      <trkpt lat="45.7182" lon="-1.1157">
        <ele>2.54</ele>
        <time>2021-02-25T14:02:50Z</time>
      </trkpt>
      <trkpt lat="45.71811" lon="-1.11563">
        <ele>2.54</ele>
        <time>2021-02-25T14:02:58Z</time>
      </trkpt>
      <trkpt lat="45.71809" lon="-1.1155">
        <ele>3.02</ele>
        <time>2021-02-25T14:03:05Z</time>
      </trkpt>
      <trkpt lat="45.71808" lon="-1.11536">
        <ele>3.5</ele>
        <time>2021-02-25T14:03:13Z</time>
      </trkpt>
      <trkpt lat="45.71806" lon="-1.11521">
        <ele>3.98</ele>
        <time>2021-02-25T14:03:21Z</time>
      </trkpt>
      <trkpt lat="45.71803" lon="-1.11508">
        <ele>3.98</ele>
        <time>2021-02-25T14:03:29Z</time>
      </trkpt>
      <trkpt lat="45.718" lon="-1.11494">
        <ele>4.94</ele>
        <time>2021-02-25T14:03:38Z</time>
      </trkpt>
      <trkpt lat="45.71797" lon="-1.11479">
        <ele>5.42</ele>
        <time>2021-02-25T14:03:46Z</time>
      </trkpt>
      <trkpt lat="45.71793" lon="-1.11467">
        <ele>5.91</ele>
        <time>2021-02-25T14:03:53Z</time>
      </trkpt>
      <trkpt lat="45.71789" lon="-1.11454">
        <ele>6.39</ele>
        <time>2021-02-25T14:04:00Z</time>
      </trkpt>
      <trkpt lat="45.71784" lon="-1.11441">
        <ele>7.35</ele>
        <time>2021-02-25T14:04:08Z</time>
      </trkpt>
      <trkpt lat="45.71779" lon="-1.11428">
        <ele>7.83</ele>
        <time>2021-02-25T14:04:17Z</time>
      </trkpt>
      <trkpt lat="45.71774" lon="-1.11416">
        <ele>8.79</ele>
        <time>2021-02-25T14:04:25Z</time>
      </trkpt>
      <trkpt lat="45.71771" lon="-1.11404">
        <ele>8.79</ele>
        <time>2021-02-25T14:04:32Z</time>
      </trkpt>
      <trkpt lat="45.71765" lon="-1.1139">
        <ele>9.27</ele>
        <time>2021-02-25T14:04:40Z</time>
      </trkpt>
      <trkpt lat="45.7176" lon="-1.11378">
        <ele>9.75</ele>
        <time>2021-02-25T14:04:48Z</time>
      </trkpt>
      <trkpt lat="45.71756" lon="-1.11365">
        <ele>10.23</ele>
        <time>2021-02-25T14:04:56Z</time>
      </trkpt>
      <trkpt lat="45.71752" lon="-1.11354">
        <ele>10.23</ele>
        <time>2021-02-25T14:05:03Z</time>
      </trkpt>
      <trkpt lat="45.71748" lon="-1.11343">
        <ele>10.23</ele>
        <time>2021-02-25T14:05:10Z</time>
      </trkpt>
      <trkpt lat="45.71743" lon="-1.11332">
        <ele>10.71</ele>
        <time>2021-02-25T14:05:17Z</time>
      </trkpt>
      <trkpt lat="45.71737" lon="-1.11321">
        <ele>10.71</ele>
        <time>2021-02-25T14:05:24Z</time>
      </trkpt>
      <trkpt lat="45.71733" lon="-1.1131">
        <ele>11.19</ele>
        <time>2021-02-25T14:05:31Z</time>
      </trkpt>
      <trkpt lat="45.71729" lon="-1.11298">
        <ele>11.19</ele>
        <time>2021-02-25T14:05:38Z</time>
      </trkpt>
      <trkpt lat="45.71725" lon="-1.11284">
        <ele>11.67</ele>
        <time>2021-02-25T14:05:46Z</time>
      </trkpt>
      <trkpt lat="45.71723" lon="-1.11271">
        <ele>11.19</ele>
        <time>2021-02-25T14:05:54Z</time>
      </trkpt>
      <trkpt lat="45.71722" lon="-1.11257">
        <ele>11.19</ele>
        <time>2021-02-25T14:06:01Z</time>
      </trkpt>
      <trkpt lat="45.71721" lon="-1.11242">
        <ele>11.19</ele>
        <time>2021-02-25T14:06:08Z</time>
      </trkpt>
      <trkpt lat="45.71719" lon="-1.11228">
        <ele>11.67</ele>
        <time>2021-02-25T14:06:16Z</time>
      </trkpt>
      <trkpt lat="45.71716" lon="-1.11215">
        <ele>11.19</ele>
        <time>2021-02-25T14:06:24Z</time>
      </trkpt>
      <trkpt lat="45.71712" lon="-1.11201">
        <ele>11.67</ele>
        <time>2021-02-25T14:06:32Z</time>
      </trkpt>
      <trkpt lat="45.71708" lon="-1.11189">
        <ele>11.19</ele>
        <time>2021-02-25T14:06:39Z</time>
      </trkpt>
      <trkpt lat="45.71703" lon="-1.11178">
        <ele>11.67</ele>
        <time>2021-02-25T14:06:47Z</time>
      </trkpt>
      <trkpt lat="45.71698" lon="-1.11165">
        <ele>11.67</ele>
        <time>2021-02-25T14:06:55Z</time>
      </trkpt>
      <trkpt lat="45.71695" lon="-1.11152">
        <ele>12.15</ele>
        <time>2021-02-25T14:07:02Z</time>
      </trkpt>
      <trkpt lat="45.71689" lon="-1.11141">
        <ele>11.67</ele>
        <time>2021-02-25T14:07:10Z</time>
      </trkpt>
      <trkpt lat="45.71685" lon="-1.11128">
        <ele>11.67</ele>
        <time>2021-02-25T14:07:18Z</time>
      </trkpt>
      <trkpt lat="45.71677" lon="-1.11122">
        <ele>12.63</ele>
        <time>2021-02-25T14:07:27Z</time>
      </trkpt>
      <trkpt lat="45.71668" lon="-1.11123">
        <ele>12.63</ele>
        <time>2021-02-25T14:07:34Z</time>
      </trkpt>
      <trkpt lat="45.71659" lon="-1.11127">
        <ele>12.15</ele>
        <time>2021-02-25T14:07:42Z</time>
      </trkpt>
      <trkpt lat="45.71648" lon="-1.1113">
        <ele>11.67</ele>
        <time>2021-02-25T14:07:52Z</time>
      </trkpt>
      <trkpt lat="45.71638" lon="-1.11126">
        <ele>11.19</ele>
        <time>2021-02-25T14:08:01Z</time>
      </trkpt>
      <trkpt lat="45.7163" lon="-1.11119">
        <ele>11.19</ele>
        <time>2021-02-25T14:08:09Z</time>
      </trkpt>
      <trkpt lat="45.71624" lon="-1.11109">
        <ele>11.19</ele>
        <time>2021-02-25T14:08:18Z</time>
      </trkpt>
      <trkpt lat="45.7162" lon="-1.11093">
        <ele>11.19</ele>
        <time>2021-02-25T14:08:27Z</time>
      </trkpt>
      <trkpt lat="45.71616" lon="-1.1108">
        <ele>11.19</ele>
        <time>2021-02-25T14:08:35Z</time>
      </trkpt>
      <trkpt lat="45.7161" lon="-1.11066">
        <ele>11.19</ele>
        <time>2021-02-25T14:08:44Z</time>
      </trkpt>
      <trkpt lat="45.71606" lon="-1.11051">
        <ele>10.71</ele>
        <time>2021-02-25T14:08:52Z</time>
      </trkpt>
      <trkpt lat="45.716" lon="-1.11037">
        <ele>10.23</ele>
        <time>2021-02-25T14:09:00Z</time>
      </trkpt>
      <trkpt lat="45.71594" lon="-1.11023">
        <ele>10.23</ele>
        <time>2021-02-25T14:09:08Z</time>
      </trkpt>
      <trkpt lat="45.71587" lon="-1.11015">
        <ele>9.75</ele>
        <time>2021-02-25T14:09:15Z</time>
      </trkpt>
      <trkpt lat="45.71579" lon="-1.11006">
        <ele>9.75</ele>
        <time>2021-02-25T14:09:22Z</time>
      </trkpt>
      <trkpt lat="45.71572" lon="-1.10996">
        <ele>9.27</ele>
        <time>2021-02-25T14:09:29Z</time>
      </trkpt>
      <trkpt lat="45.71565" lon="-1.10988">
        <ele>9.27</ele>
        <time>2021-02-25T14:09:36Z</time>
      </trkpt>
      <trkpt lat="45.71559" lon="-1.10978">
        <ele>8.79</ele>
        <time>2021-02-25T14:09:46Z</time>
      </trkpt>
      <trkpt lat="45.7155" lon="-1.10976">
        <ele>9.27</ele>
        <time>2021-02-25T14:10:03Z</time>
      </trkpt>
      <trkpt lat="45.71552" lon="-1.10972">
        <ele>9.27</ele>
        <time>2021-02-25T14:10:23Z</time>
      </trkpt>
      <trkpt lat="45.71553" lon="-1.10959">
        <ele>9.27</ele>
        <time>2021-02-25T14:10:31Z</time>
      </trkpt>
      <trkpt lat="45.71554" lon="-1.10945">
        <ele>9.75</ele>
        <time>2021-02-25T14:10:38Z</time>
      </trkpt>
      <trkpt lat="45.71555" lon="-1.10932">
        <ele>9.75</ele>
        <time>2021-02-25T14:10:45Z</time>
      </trkpt>
      <trkpt lat="45.71555" lon="-1.10919">
        <ele>10.23</ele>
        <time>2021-02-25T14:10:54Z</time>
      </trkpt>
      <trkpt lat="45.71555" lon="-1.10904">
        <ele>10.71</ele>
        <time>2021-02-25T14:11:04Z</time>
      </trkpt>
      <trkpt lat="45.71556" lon="-1.10888">
        <ele>11.19</ele>
        <time>2021-02-25T14:11:14Z</time>
      </trkpt>
      <trkpt lat="45.71556" lon="-1.10873">
        <ele>11.67</ele>
        <time>2021-02-25T14:11:23Z</time>
      </trkpt>
      <trkpt lat="45.71558" lon="-1.10859">
        <ele>11.67</ele>
        <time>2021-02-25T14:11:32Z</time>
      </trkpt>
      <trkpt lat="45.71558" lon="-1.10843">
        <ele>11.67</ele>
        <time>2021-02-25T14:11:40Z</time>
      </trkpt>
      <trkpt lat="45.71558" lon="-1.1083">
        <ele>11.67</ele>
        <time>2021-02-25T14:11:48Z</time>
      </trkpt>
      <trkpt lat="45.71555" lon="-1.10818">
        <ele>11.67</ele>
        <time>2021-02-25T14:11:58Z</time>
      </trkpt>
      <trkpt lat="45.71554" lon="-1.10803">
        <ele>11.19</ele>
        <time>2021-02-25T14:12:07Z</time>
      </trkpt>
      <trkpt lat="45.71552" lon="-1.10788">
        <ele>10.71</ele>
        <time>2021-02-25T14:12:16Z</time>
      </trkpt>
      <trkpt lat="45.71551" lon="-1.10772">
        <ele>9.75</ele>
        <time>2021-02-25T14:12:26Z</time>
      </trkpt>
      <trkpt lat="45.71548" lon="-1.10756">
        <ele>8.31</ele>
        <time>2021-02-25T14:12:37Z</time>
      </trkpt>
      <trkpt lat="45.71545" lon="-1.10741">
        <ele>6.87</ele>
        <time>2021-02-25T14:12:48Z</time>
      </trkpt>
      <trkpt lat="45.71544" lon="-1.10723">
        <ele>6.39</ele>
        <time>2021-02-25T14:12:59Z</time>
      </trkpt>
      <trkpt lat="45.71537" lon="-1.10709">
        <ele>5.91</ele>
        <time>2021-02-25T14:13:11Z</time>
      </trkpt>
      <trkpt lat="45.7153" lon="-1.10696">
        <ele>5.42</ele>
        <time>2021-02-25T14:13:21Z</time>
      </trkpt>
      <trkpt lat="45.71523" lon="-1.10682">
        <ele>5.91</ele>
        <time>2021-02-25T14:13:31Z</time>
      </trkpt>
      <trkpt lat="45.71517" lon="-1.10668">
        <ele>6.39</ele>
        <time>2021-02-25T14:13:39Z</time>
      </trkpt>
      <trkpt lat="45.71509" lon="-1.10658">
        <ele>6.87</ele>
        <time>2021-02-25T14:13:47Z</time>
      </trkpt>
      <trkpt lat="45.71502" lon="-1.10649">
        <ele>8.31</ele>
        <time>2021-02-25T14:13:56Z</time>
      </trkpt>
      <trkpt lat="45.71496" lon="-1.10638">
        <ele>9.75</ele>
        <time>2021-02-25T14:14:05Z</time>
      </trkpt>
      <trkpt lat="45.7149" lon="-1.10625">
        <ele>9.75</ele>
        <time>2021-02-25T14:14:14Z</time>
      </trkpt>
      <trkpt lat="45.71486" lon="-1.10612">
        <ele>10.71</ele>
        <time>2021-02-25T14:14:23Z</time>
      </trkpt>
      <trkpt lat="45.71482" lon="-1.10601">
        <ele>10.71</ele>
        <time>2021-02-25T14:14:31Z</time>
      </trkpt>
      <trkpt lat="45.71477" lon="-1.10589">
        <ele>11.19</ele>
        <time>2021-02-25T14:14:39Z</time>
      </trkpt>
      <trkpt lat="45.71474" lon="-1.10576">
        <ele>11.67</ele>
        <time>2021-02-25T14:14:47Z</time>
      </trkpt>
      <trkpt lat="45.71469" lon="-1.10564">
        <ele>11.67</ele>
        <time>2021-02-25T14:14:55Z</time>
      </trkpt>
      <trkpt lat="45.71466" lon="-1.1055">
        <ele>12.15</ele>
        <time>2021-02-25T14:15:04Z</time>
      </trkpt>
      <trkpt lat="45.71463" lon="-1.10539">
        <ele>11.67</ele>
        <time>2021-02-25T14:15:12Z</time>
      </trkpt>
      <trkpt lat="45.7146" lon="-1.10525">
        <ele>12.15</ele>
        <time>2021-02-25T14:15:20Z</time>
      </trkpt>
      <trkpt lat="45.71456" lon="-1.10513">
        <ele>12.15</ele>
        <time>2021-02-25T14:15:29Z</time>
      </trkpt>
      <trkpt lat="45.71452" lon="-1.105">
        <ele>11.67</ele>
        <time>2021-02-25T14:15:37Z</time>
      </trkpt>
      <trkpt lat="45.71449" lon="-1.10488">
        <ele>12.15</ele>
        <time>2021-02-25T14:15:45Z</time>
      </trkpt>
      <trkpt lat="45.71448" lon="-1.10475">
        <ele>11.67</ele>
        <time>2021-02-25T14:15:55Z</time>
      </trkpt>
      <trkpt lat="45.71449" lon="-1.10462">
        <ele>12.15</ele>
        <time>2021-02-25T14:16:05Z</time>
      </trkpt>
      <trkpt lat="45.71451" lon="-1.10448">
        <ele>11.67</ele>
        <time>2021-02-25T14:16:15Z</time>
      </trkpt>
      <trkpt lat="45.71454" lon="-1.10435">
        <ele>11.67</ele>
        <time>2021-02-25T14:16:24Z</time>
      </trkpt>
      <trkpt lat="45.71456" lon="-1.10421">
        <ele>11.67</ele>
        <time>2021-02-25T14:16:32Z</time>
      </trkpt>
      <trkpt lat="45.7146" lon="-1.10408">
        <ele>11.67</ele>
        <time>2021-02-25T14:16:39Z</time>
      </trkpt>
      <trkpt lat="45.71461" lon="-1.10395">
        <ele>12.63</ele>
        <time>2021-02-25T14:16:48Z</time>
      </trkpt>
      <trkpt lat="45.71454" lon="-1.10389">
        <ele>11.67</ele>
        <time>2021-02-25T14:16:57Z</time>
      </trkpt>
      <trkpt lat="45.71445" lon="-1.10393">
        <ele>10.71</ele>
        <time>2021-02-25T14:17:04Z</time>
      </trkpt>
      <trkpt lat="45.71435" lon="-1.10397">
        <ele>10.23</ele>
        <time>2021-02-25T14:17:11Z</time>
      </trkpt>
      <trkpt lat="45.71426" lon="-1.10399">
        <ele>9.75</ele>
        <time>2021-02-25T14:17:19Z</time>
      </trkpt>
      <trkpt lat="45.71419" lon="-1.10392">
        <ele>9.75</ele>
        <time>2021-02-25T14:17:26Z</time>
      </trkpt>
      <trkpt lat="45.71419" lon="-1.10379">
        <ele>10.23</ele>
        <time>2021-02-25T14:17:33Z</time>
      </trkpt>
      <trkpt lat="45.7142" lon="-1.10365">
        <ele>10.71</ele>
        <time>2021-02-25T14:17:42Z</time>
      </trkpt>
      <trkpt lat="45.71422" lon="-1.10353">
        <ele>11.19</ele>
        <time>2021-02-25T14:17:49Z</time>
      </trkpt>
      <trkpt lat="45.71423" lon="-1.1034">
        <ele>11.67</ele>
        <time>2021-02-25T14:17:57Z</time>
      </trkpt>
      <trkpt lat="45.71424" lon="-1.10325">
        <ele>11.67</ele>
        <time>2021-02-25T14:18:05Z</time>
      </trkpt>
      <trkpt lat="45.71426" lon="-1.10311">
        <ele>12.15</ele>
        <time>2021-02-25T14:18:14Z</time>
      </trkpt>
      <trkpt lat="45.71429" lon="-1.10297">
        <ele>12.15</ele>
        <time>2021-02-25T14:18:23Z</time>
      </trkpt>
      <trkpt lat="45.7143" lon="-1.10282">
        <ele>12.63</ele>
        <time>2021-02-25T14:18:32Z</time>
      </trkpt>
      <trkpt lat="45.71431" lon="-1.10269">
        <ele>13.12</ele>
        <time>2021-02-25T14:18:39Z</time>
      </trkpt>
      <trkpt lat="45.71433" lon="-1.10254">
        <ele>11.67</ele>
        <time>2021-02-25T14:18:47Z</time>
      </trkpt>
      <trkpt lat="45.71435" lon="-1.1024">
        <ele>11.19</ele>
        <time>2021-02-25T14:18:55Z</time>
      </trkpt>
      <trkpt lat="45.71436" lon="-1.10226">
        <ele>9.27</ele>
        <time>2021-02-25T14:19:04Z</time>
      </trkpt>
      <trkpt lat="45.71439" lon="-1.10211">
        <ele>7.83</ele>
        <time>2021-02-25T14:19:14Z</time>
      </trkpt>
      <trkpt lat="45.71439" lon="-1.10197">
        <ele>5.91</ele>
        <time>2021-02-25T14:19:24Z</time>
      </trkpt>
      <trkpt lat="45.71441" lon="-1.10184">
        <ele>4.46</ele>
        <time>2021-02-25T14:19:34Z</time>
      </trkpt>
      <trkpt lat="45.71434" lon="-1.1017">
        <ele>3.98</ele>
        <time>2021-02-25T14:19:43Z</time>
      </trkpt>
      <trkpt lat="45.71425" lon="-1.10164">
        <ele>3.5</ele>
        <time>2021-02-25T14:19:50Z</time>
      </trkpt>
      <trkpt lat="45.71416" lon="-1.10159">
        <ele>3.02</ele>
        <time>2021-02-25T14:19:57Z</time>
      </trkpt>
      <trkpt lat="45.71408" lon="-1.10152">
        <ele>2.54</ele>
        <time>2021-02-25T14:20:04Z</time>
      </trkpt>
      <trkpt lat="45.714" lon="-1.10146">
        <ele>2.06</ele>
        <time>2021-02-25T14:20:11Z</time>
      </trkpt>
      <trkpt lat="45.71391" lon="-1.1014">
        <ele>1.58</ele>
        <time>2021-02-25T14:20:19Z</time>
      </trkpt>
      <trkpt lat="45.71382" lon="-1.10135">
        <ele>1.1</ele>
        <time>2021-02-25T14:20:26Z</time>
      </trkpt>
      <trkpt lat="45.71374" lon="-1.10129">
        <ele>0.62</ele>
        <time>2021-02-25T14:20:33Z</time>
      </trkpt>
      <trkpt lat="45.71368" lon="-1.10119">
        <ele>1.1</ele>
        <time>2021-02-25T14:20:40Z</time>
      </trkpt>
      <trkpt lat="45.71365" lon="-1.10106">
        <ele>1.1</ele>
        <time>2021-02-25T14:20:48Z</time>
      </trkpt>
      <trkpt lat="45.71364" lon="-1.10093">
        <ele>0.62</ele>
        <time>2021-02-25T14:20:56Z</time>
      </trkpt>
      <trkpt lat="45.7136" lon="-1.10081">
        <ele>0.62</ele>
        <time>2021-02-25T14:21:03Z</time>
      </trkpt>
      <trkpt lat="45.71358" lon="-1.10066">
        <ele>1.58</ele>
        <time>2021-02-25T14:21:12Z</time>
      </trkpt>
      <trkpt lat="45.71361" lon="-1.10054">
        <ele>1.58</ele>
        <time>2021-02-25T14:21:20Z</time>
      </trkpt>
      <trkpt lat="45.71369" lon="-1.1005">
        <ele>2.54</ele>
        <time>2021-02-25T14:21:28Z</time>
      </trkpt>
      <trkpt lat="45.71378" lon="-1.10051">
        <ele>3.02</ele>
        <time>2021-02-25T14:21:34Z</time>
      </trkpt>
      <trkpt lat="45.71388" lon="-1.10054">
        <ele>4.46</ele>
        <time>2021-02-25T14:21:42Z</time>
      </trkpt>
      <trkpt lat="45.71398" lon="-1.10057">
        <ele>5.42</ele>
        <time>2021-02-25T14:21:49Z</time>
      </trkpt>
      <trkpt lat="45.71407" lon="-1.10058">
        <ele>6.87</ele>
        <time>2021-02-25T14:21:57Z</time>
      </trkpt>
      <trkpt lat="45.71417" lon="-1.1006">
        <ele>7.35</ele>
        <time>2021-02-25T14:22:05Z</time>
      </trkpt>
      <trkpt lat="45.71425" lon="-1.10063">
        <ele>8.79</ele>
        <time>2021-02-25T14:22:13Z</time>
      </trkpt>
      <trkpt lat="45.71435" lon="-1.10065">
        <ele>9.27</ele>
        <time>2021-02-25T14:22:21Z</time>
      </trkpt>
      <trkpt lat="45.71445" lon="-1.10065">
        <ele>10.23</ele>
        <time>2021-02-25T14:22:29Z</time>
      </trkpt>
      <trkpt lat="45.71454" lon="-1.10067">
        <ele>10.71</ele>
        <time>2021-02-25T14:22:37Z</time>
      </trkpt>
      <trkpt lat="45.71464" lon="-1.10068">
        <ele>11.67</ele>
        <time>2021-02-25T14:22:45Z</time>
      </trkpt>
      <trkpt lat="45.71474" lon="-1.10068">
        <ele>12.15</ele>
        <time>2021-02-25T14:22:54Z</time>
      </trkpt>
      <trkpt lat="45.71484" lon="-1.10068">
        <ele>12.15</ele>
        <time>2021-02-25T14:23:01Z</time>
      </trkpt>
      <trkpt lat="45.71493" lon="-1.10069">
        <ele>12.63</ele>
        <time>2021-02-25T14:23:08Z</time>
      </trkpt>
      <trkpt lat="45.71502" lon="-1.10071">
        <ele>13.12</ele>
        <time>2021-02-25T14:23:15Z</time>
      </trkpt>
      <trkpt lat="45.71511" lon="-1.10071">
        <ele>13.12</ele>
        <time>2021-02-25T14:23:21Z</time>
      </trkpt>
      <trkpt lat="45.71519" lon="-1.1007">
        <ele>13.6</ele>
        <time>2021-02-25T14:23:29Z</time>
      </trkpt>
      <trkpt lat="45.7153" lon="-1.10071">
        <ele>13.6</ele>
        <time>2021-02-25T14:23:37Z</time>
      </trkpt>
      <trkpt lat="45.7154" lon="-1.10071">
        <ele>14.08</ele>
        <time>2021-02-25T14:23:45Z</time>
      </trkpt>
      <trkpt lat="45.71549" lon="-1.1007">
        <ele>14.08</ele>
        <time>2021-02-25T14:23:52Z</time>
      </trkpt>
      <trkpt lat="45.71558" lon="-1.10067">
        <ele>14.56</ele>
        <time>2021-02-25T14:24:00Z</time>
      </trkpt>
      <trkpt lat="45.71568" lon="-1.10065">
        <ele>14.56</ele>
        <time>2021-02-25T14:24:09Z</time>
      </trkpt>
      <trkpt lat="45.71578" lon="-1.10062">
        <ele>14.56</ele>
        <time>2021-02-25T14:24:16Z</time>
      </trkpt>
      <trkpt lat="45.71587" lon="-1.10058">
        <ele>14.56</ele>
        <time>2021-02-25T14:24:24Z</time>
      </trkpt>
      <trkpt lat="45.71596" lon="-1.10055">
        <ele>14.56</ele>
        <time>2021-02-25T14:24:32Z</time>
      </trkpt>
      <trkpt lat="45.71604" lon="-1.10048">
        <ele>14.56</ele>
        <time>2021-02-25T14:24:41Z</time>
      </trkpt>
      <trkpt lat="45.71603" lon="-1.10034">
        <ele>14.08</ele>
        <time>2021-02-25T14:24:48Z</time>
      </trkpt>
      <trkpt lat="45.71601" lon="-1.10021">
        <ele>14.08</ele>
        <time>2021-02-25T14:24:55Z</time>
      </trkpt>
      <trkpt lat="45.71599" lon="-1.10007">
        <ele>14.08</ele>
        <time>2021-02-25T14:25:02Z</time>
      </trkpt>
      <trkpt lat="45.71599" lon="-1.09993">
        <ele>13.6</ele>
        <time>2021-02-25T14:25:11Z</time>
      </trkpt>
      <trkpt lat="45.716" lon="-1.0998">
        <ele>13.6</ele>
        <time>2021-02-25T14:25:19Z</time>
      </trkpt>
      <trkpt lat="45.71597" lon="-1.09966">
        <ele>13.6</ele>
        <time>2021-02-25T14:25:28Z</time>
      </trkpt>
      <trkpt lat="45.71593" lon="-1.09953">
        <ele>13.12</ele>
        <time>2021-02-25T14:25:36Z</time>
      </trkpt>
      <trkpt lat="45.71589" lon="-1.09939">
        <ele>12.63</ele>
        <time>2021-02-25T14:25:44Z</time>
      </trkpt>
      <trkpt lat="45.71585" lon="-1.09926">
        <ele>12.63</ele>
        <time>2021-02-25T14:25:56Z</time>
      </trkpt>
      <trkpt lat="45.71581" lon="-1.09907">
        <ele>13.12</ele>
        <time>2021-02-25T14:26:07Z</time>
      </trkpt>
      <trkpt lat="45.71582" lon="-1.0991">
        <ele>12.63</ele>
        <time>2021-02-25T14:27:42Z</time>
      </trkpt>
      <trkpt lat="45.71583" lon="-1.099">
        <ele>12.63</ele>
        <time>2021-02-25T14:28:36Z</time>
      </trkpt>
      <trkpt lat="45.71583" lon="-1.09887">
        <ele>13.12</ele>
        <time>2021-02-25T14:29:36Z</time>
      </trkpt>
      <trkpt lat="45.71585" lon="-1.09873">
        <ele>13.12</ele>
        <time>2021-02-25T14:29:45Z</time>
      </trkpt>
      <trkpt lat="45.71589" lon="-1.0986">
        <ele>13.12</ele>
        <time>2021-02-25T14:29:52Z</time>
      </trkpt>
      <trkpt lat="45.71593" lon="-1.09847">
        <ele>13.6</ele>
        <time>2021-02-25T14:30:00Z</time>
      </trkpt>
      <trkpt lat="45.716" lon="-1.09838">
        <ele>13.6</ele>
        <time>2021-02-25T14:30:07Z</time>
      </trkpt>
      <trkpt lat="45.71607" lon="-1.09826">
        <ele>14.08</ele>
        <time>2021-02-25T14:30:15Z</time>
      </trkpt>
      <trkpt lat="45.71615" lon="-1.09815">
        <ele>14.08</ele>
        <time>2021-02-25T14:30:21Z</time>
      </trkpt>
      <trkpt lat="45.7162" lon="-1.09805">
        <ele>14.08</ele>
        <time>2021-02-25T14:30:28Z</time>
      </trkpt>
      <trkpt lat="45.71627" lon="-1.09793">
        <ele>14.08</ele>
        <time>2021-02-25T14:30:37Z</time>
      </trkpt>
      <trkpt lat="45.71633" lon="-1.09782">
        <ele>14.08</ele>
        <time>2021-02-25T14:30:45Z</time>
      </trkpt>
      <trkpt lat="45.7164" lon="-1.09771">
        <ele>14.56</ele>
        <time>2021-02-25T14:30:54Z</time>
      </trkpt>
      <trkpt lat="45.71644" lon="-1.09757">
        <ele>14.56</ele>
        <time>2021-02-25T14:31:03Z</time>
      </trkpt>
      <trkpt lat="45.71651" lon="-1.09744">
        <ele>14.08</ele>
        <time>2021-02-25T14:31:12Z</time>
      </trkpt>
      <trkpt lat="45.71656" lon="-1.09732">
        <ele>14.08</ele>
        <time>2021-02-25T14:31:21Z</time>
      </trkpt>
      <trkpt lat="45.71661" lon="-1.09721">
        <ele>14.56</ele>
        <time>2021-02-25T14:31:29Z</time>
      </trkpt>
      <trkpt lat="45.71664" lon="-1.09709">
        <ele>14.08</ele>
        <time>2021-02-25T14:31:37Z</time>
      </trkpt>
      <trkpt lat="45.71665" lon="-1.09693">
        <ele>14.08</ele>
        <time>2021-02-25T14:31:53Z</time>
      </trkpt>
      <trkpt lat="45.71665" lon="-1.09674">
        <ele>14.08</ele>
        <time>2021-02-25T14:32:05Z</time>
      </trkpt>
      <trkpt lat="45.71665" lon="-1.09652">
        <ele>14.08</ele>
        <time>2021-02-25T14:32:15Z</time>
      </trkpt>
      <trkpt lat="45.71662" lon="-1.09639">
        <ele>14.56</ele>
        <time>2021-02-25T14:32:22Z</time>
      </trkpt>
      <trkpt lat="45.71658" lon="-1.09626">
        <ele>14.08</ele>
        <time>2021-02-25T14:32:29Z</time>
      </trkpt>
      <trkpt lat="45.71654" lon="-1.09614">
        <ele>14.08</ele>
        <time>2021-02-25T14:32:38Z</time>
      </trkpt>
      <trkpt lat="45.71649" lon="-1.09603">
        <ele>14.08</ele>
        <time>2021-02-25T14:32:46Z</time>
      </trkpt>
      <trkpt lat="45.71646" lon="-1.09589">
        <ele>14.08</ele>
        <time>2021-02-25T14:32:56Z</time>
      </trkpt>
      <trkpt lat="45.71648" lon="-1.09571">
        <ele>14.08</ele>
        <time>2021-02-25T14:33:05Z</time>
      </trkpt>
      <trkpt lat="45.71654" lon="-1.09558">
        <ele>14.08</ele>
        <time>2021-02-25T14:33:15Z</time>
      </trkpt>
      <trkpt lat="45.71659" lon="-1.09547">
        <ele>14.08</ele>
        <time>2021-02-25T14:33:23Z</time>
      </trkpt>
      <trkpt lat="45.71668" lon="-1.09538">
        <ele>13.6</ele>
        <time>2021-02-25T14:33:34Z</time>
      </trkpt>
      <trkpt lat="45.71677" lon="-1.0953">
        <ele>12.63</ele>
        <time>2021-02-25T14:33:46Z</time>
      </trkpt>
      <trkpt lat="45.71677" lon="-1.09518">
        <ele>12.63</ele>
        <time>2021-02-25T14:33:55Z</time>
      </trkpt>
      <trkpt lat="45.71672" lon="-1.09507">
        <ele>12.63</ele>
        <time>2021-02-25T14:34:02Z</time>
      </trkpt>
      <trkpt lat="45.71665" lon="-1.09496">
        <ele>12.63</ele>
        <time>2021-02-25T14:34:11Z</time>
      </trkpt>
      <trkpt lat="45.7166" lon="-1.09483">
        <ele>12.63</ele>
        <time>2021-02-25T14:34:21Z</time>
      </trkpt>
      <trkpt lat="45.71655" lon="-1.09467">
        <ele>13.12</ele>
        <time>2021-02-25T14:34:30Z</time>
      </trkpt>
      <trkpt lat="45.71651" lon="-1.09453">
        <ele>13.12</ele>
        <time>2021-02-25T14:34:38Z</time>
      </trkpt>
      <trkpt lat="45.71645" lon="-1.09442">
        <ele>12.63</ele>
        <time>2021-02-25T14:34:47Z</time>
      </trkpt>
      <trkpt lat="45.71637" lon="-1.09433">
        <ele>12.15</ele>
        <time>2021-02-25T14:34:58Z</time>
      </trkpt>
      <trkpt lat="45.7163" lon="-1.09423">
        <ele>11.67</ele>
        <time>2021-02-25T14:35:08Z</time>
      </trkpt>
      <trkpt lat="45.71629" lon="-1.09405">
        <ele>11.67</ele>
        <time>2021-02-25T14:35:18Z</time>
      </trkpt>
      <trkpt lat="45.7163" lon="-1.0939">
        <ele>11.67</ele>
        <time>2021-02-25T14:35:28Z</time>
      </trkpt>
      <trkpt lat="45.71633" lon="-1.09376">
        <ele>11.19</ele>
        <time>2021-02-25T14:35:36Z</time>
      </trkpt>
      <trkpt lat="45.71636" lon="-1.09362">
        <ele>10.71</ele>
        <time>2021-02-25T14:35:46Z</time>
      </trkpt>
      <trkpt lat="45.71641" lon="-1.09348">
        <ele>10.71</ele>
        <time>2021-02-25T14:35:56Z</time>
      </trkpt>
      <trkpt lat="45.71645" lon="-1.09335">
        <ele>10.23</ele>
        <time>2021-02-25T14:36:06Z</time>
      </trkpt>
      <trkpt lat="45.7165" lon="-1.09317">
        <ele>9.75</ele>
        <time>2021-02-25T14:36:17Z</time>
      </trkpt>
      <trkpt lat="45.71655" lon="-1.093">
        <ele>9.75</ele>
        <time>2021-02-25T14:36:26Z</time>
      </trkpt>
      <trkpt lat="45.71659" lon="-1.09283">
        <ele>9.27</ele>
        <time>2021-02-25T14:36:35Z</time>
      </trkpt>
      <trkpt lat="45.71663" lon="-1.09268">
        <ele>9.27</ele>
        <time>2021-02-25T14:36:43Z</time>
      </trkpt>
      <trkpt lat="45.71667" lon="-1.09253">
        <ele>8.79</ele>
        <time>2021-02-25T14:36:51Z</time>
      </trkpt>
      <trkpt lat="45.71669" lon="-1.09237">
        <ele>8.31</ele>
        <time>2021-02-25T14:37:00Z</time>
      </trkpt>
      <trkpt lat="45.71672" lon="-1.09222">
        <ele>7.83</ele>
        <time>2021-02-25T14:37:09Z</time>
      </trkpt>
      <trkpt lat="45.71678" lon="-1.09208">
        <ele>7.35</ele>
        <time>2021-02-25T14:37:27Z</time>
      </trkpt>
      <trkpt lat="45.71692" lon="-1.09207">
        <ele>7.83</ele>
        <time>2021-02-25T14:37:44Z</time>
      </trkpt>
      <trkpt lat="45.71707" lon="-1.09201">
        <ele>7.83</ele>
        <time>2021-02-25T14:37:58Z</time>
      </trkpt>
      <trkpt lat="45.71722" lon="-1.09196">
        <ele>6.87</ele>
        <time>2021-02-25T14:38:15Z</time>
      </trkpt>
      <trkpt lat="45.71739" lon="-1.09196">
        <ele>6.87</ele>
        <time>2021-02-25T14:38:33Z</time>
      </trkpt>
      <trkpt lat="45.71756" lon="-1.09208">
        <ele>5.91</ele>
        <time>2021-02-25T14:38:49Z</time>
      </trkpt>
      <trkpt lat="45.71767" lon="-1.09207">
        <ele>4.46</ele>
        <time>2021-02-25T14:39:19Z</time>
      </trkpt>
      <trkpt lat="45.71784" lon="-1.09196">
        <ele>4.46</ele>
        <time>2021-02-25T14:40:14Z</time>
      </trkpt>
      <trkpt lat="45.71797" lon="-1.09199">
        <ele>4.94</ele>
        <time>2021-02-25T14:41:05Z</time>
      </trkpt>
      <trkpt lat="45.71808" lon="-1.09204">
        <ele>4.94</ele>
        <time>2021-02-25T14:41:43Z</time>
      </trkpt>
      <trkpt lat="45.7182" lon="-1.09207">
        <ele>6.87</ele>
        <time>2021-02-25T14:42:11Z</time>
      </trkpt>
      <trkpt lat="45.71829" lon="-1.0922">
        <ele>8.31</ele>
        <time>2021-02-25T14:42:38Z</time>
      </trkpt>
      <trkpt lat="45.71841" lon="-1.09223">
        <ele>9.27</ele>
        <time>2021-02-25T14:42:51Z</time>
      </trkpt>
      <trkpt lat="45.71858" lon="-1.09242">
        <ele>10.23</ele>
        <time>2021-02-25T14:43:04Z</time>
      </trkpt>
      <trkpt lat="45.71873" lon="-1.09254">
        <ele>12.15</ele>
        <time>2021-02-25T14:43:21Z</time>
      </trkpt>
      <trkpt lat="45.71888" lon="-1.09269">
        <ele>13.12</ele>
        <time>2021-02-25T14:43:36Z</time>
      </trkpt>
      <trkpt lat="45.71899" lon="-1.0927">
        <ele>13.6</ele>
        <time>2021-02-25T14:43:49Z</time>
      </trkpt>
      <trkpt lat="45.71911" lon="-1.09266">
        <ele>13.6</ele>
        <time>2021-02-25T14:44:03Z</time>
      </trkpt>
      <trkpt lat="45.71924" lon="-1.09271">
        <ele>14.08</ele>
        <time>2021-02-25T14:44:17Z</time>
      </trkpt>
      <trkpt lat="45.71947" lon="-1.09275">
        <ele>14.56</ele>
        <time>2021-02-25T14:44:45Z</time>
      </trkpt>
      <trkpt lat="45.71946" lon="-1.09267">
        <ele>14.56</ele>
        <time>2021-02-25T14:45:01Z</time>
      </trkpt>
      <trkpt lat="45.71948" lon="-1.09242">
        <ele>14.08</ele>
        <time>2021-02-25T14:45:17Z</time>
      </trkpt>
      <trkpt lat="45.71944" lon="-1.09223">
        <ele>13.6</ele>
        <time>2021-02-25T14:45:32Z</time>
      </trkpt>
      <trkpt lat="45.71952" lon="-1.09211">
        <ele>13.12</ele>
        <time>2021-02-25T14:45:45Z</time>
      </trkpt>
      <trkpt lat="45.71962" lon="-1.09199">
        <ele>11.67</ele>
        <time>2021-02-25T14:46:06Z</time>
      </trkpt>
      <trkpt lat="45.71973" lon="-1.09187">
        <ele>11.19</ele>
        <time>2021-02-25T14:46:20Z</time>
      </trkpt>
      <trkpt lat="45.71986" lon="-1.09175">
        <ele>12.15</ele>
        <time>2021-02-25T14:47:01Z</time>
      </trkpt>
      <trkpt lat="45.72002" lon="-1.09157">
        <ele>12.63</ele>
        <time>2021-02-25T14:47:18Z</time>
      </trkpt>
      <trkpt lat="45.72014" lon="-1.09169">
        <ele>13.6</ele>
        <time>2021-02-25T14:47:34Z</time>
      </trkpt>
      <trkpt lat="45.72024" lon="-1.09174">
        <ele>14.08</ele>
        <time>2021-02-25T14:49:32Z</time>
      </trkpt>
      <trkpt lat="45.72042" lon="-1.09178">
        <ele>16</ele>
        <time>2021-02-25T14:49:48Z</time>
      </trkpt>
      <trkpt lat="45.72052" lon="-1.09171">
        <ele>17.44</ele>
        <time>2021-02-25T14:50:06Z</time>
      </trkpt>
      <trkpt lat="45.72065" lon="-1.09167">
        <ele>17.92</ele>
        <time>2021-02-25T14:50:22Z</time>
      </trkpt>
      <trkpt lat="45.72071" lon="-1.09172">
        <ele>17.92</ele>
        <time>2021-02-25T14:50:42Z</time>
      </trkpt>
      <trkpt lat="45.72067" lon="-1.09189">
        <ele>15.52</ele>
        <time>2021-02-25T14:51:14Z</time>
      </trkpt>
      <trkpt lat="45.72079" lon="-1.09213">
        <ele>16.48</ele>
        <time>2021-02-25T14:51:34Z</time>
      </trkpt>
      <trkpt lat="45.72085" lon="-1.09239">
        <ele>17.44</ele>
        <time>2021-02-25T14:51:58Z</time>
      </trkpt>
      <trkpt lat="45.72098" lon="-1.0924">
        <ele>18.88</ele>
        <time>2021-02-25T14:52:13Z</time>
      </trkpt>
      <trkpt lat="45.72116" lon="-1.09243">
        <ele>19.84</ele>
        <time>2021-02-25T14:52:33Z</time>
      </trkpt>
      <trkpt lat="45.72128" lon="-1.0924">
        <ele>19.84</ele>
        <time>2021-02-25T14:52:49Z</time>
      </trkpt>
      <trkpt lat="45.72131" lon="-1.09223">
        <ele>20.81</ele>
        <time>2021-02-25T14:53:05Z</time>
      </trkpt>
      <trkpt lat="45.72138" lon="-1.09184">
        <ele>20.81</ele>
        <time>2021-02-25T14:53:44Z</time>
      </trkpt>
      <trkpt lat="45.7214" lon="-1.09177">
        <ele>22.25</ele>
        <time>2021-02-25T14:54:10Z</time>
      </trkpt>
      <trkpt lat="45.72152" lon="-1.09176">
        <ele>21.77</ele>
        <time>2021-02-25T14:54:25Z</time>
      </trkpt>
      <trkpt lat="45.72166" lon="-1.09187">
        <ele>21.77</ele>
        <time>2021-02-25T14:54:40Z</time>
      </trkpt>
      <trkpt lat="45.72185" lon="-1.092">
        <ele>22.25</ele>
        <time>2021-02-25T14:55:00Z</time>
      </trkpt>
      <trkpt lat="45.72196" lon="-1.09193">
        <ele>22.73</ele>
        <time>2021-02-25T14:55:31Z</time>
      </trkpt>
      <trkpt lat="45.72209" lon="-1.09193">
        <ele>22.73</ele>
        <time>2021-02-25T14:55:43Z</time>
      </trkpt>
      <trkpt lat="45.72223" lon="-1.09193">
        <ele>23.21</ele>
        <time>2021-02-25T14:55:54Z</time>
      </trkpt>
      <trkpt lat="45.72236" lon="-1.09191">
        <ele>23.69</ele>
        <time>2021-02-25T14:56:06Z</time>
      </trkpt>
      <trkpt lat="45.7225" lon="-1.0919">
        <ele>24.17</ele>
        <time>2021-02-25T14:56:22Z</time>
      </trkpt>
      <trkpt lat="45.72264" lon="-1.09199">
        <ele>24.17</ele>
        <time>2021-02-25T14:56:41Z</time>
      </trkpt>
      <trkpt lat="45.72278" lon="-1.09196">
        <ele>23.21</ele>
        <time>2021-02-25T14:57:03Z</time>
      </trkpt>
      <trkpt lat="45.72279" lon="-1.09178">
        <ele>23.69</ele>
        <time>2021-02-25T14:57:27Z</time>
      </trkpt>
      <trkpt lat="45.72282" lon="-1.0916">
        <ele>23.69</ele>
        <time>2021-02-25T14:58:10Z</time>
      </trkpt>
      <trkpt lat="45.72292" lon="-1.09155">
        <ele>25.61</ele>
        <time>2021-02-25T14:58:31Z</time>
      </trkpt>
      <trkpt lat="45.72306" lon="-1.09147">
        <ele>26.09</ele>
        <time>2021-02-25T14:58:51Z</time>
      </trkpt>
      <trkpt lat="45.72313" lon="-1.09131">
        <ele>26.09</ele>
        <time>2021-02-25T14:59:04Z</time>
      </trkpt>
      <trkpt lat="45.72321" lon="-1.09121">
        <ele>26.57</ele>
        <time>2021-02-25T14:59:17Z</time>
      </trkpt>
      <trkpt lat="45.72329" lon="-1.09121">
        <ele>27.05</ele>
        <time>2021-02-25T14:59:31Z</time>
      </trkpt>
      <trkpt lat="45.72341" lon="-1.09111">
        <ele>27.05</ele>
        <time>2021-02-25T14:59:42Z</time>
      </trkpt>
      <trkpt lat="45.72349" lon="-1.09113">
        <ele>27.05</ele>
        <time>2021-02-25T15:00:00Z</time>
      </trkpt>
      <trkpt lat="45.72364" lon="-1.09123">
        <ele>27.53</ele>
        <time>2021-02-25T15:00:19Z</time>
      </trkpt>
      <trkpt lat="45.72386" lon="-1.09124">
        <ele>27.05</ele>
        <time>2021-02-25T15:00:39Z</time>
      </trkpt>
      <trkpt lat="45.72409" lon="-1.09138">
        <ele>26.09</ele>
        <time>2021-02-25T15:01:02Z</time>
      </trkpt>
      <trkpt lat="45.72423" lon="-1.09146">
        <ele>26.09</ele>
        <time>2021-02-25T15:01:22Z</time>
      </trkpt>
      <trkpt lat="45.72443" lon="-1.09163">
        <ele>26.09</ele>
        <time>2021-02-25T15:01:47Z</time>
      </trkpt>
      <trkpt lat="45.72454" lon="-1.09162">
        <ele>25.61</ele>
        <time>2021-02-25T15:02:10Z</time>
      </trkpt>
      <trkpt lat="45.72478" lon="-1.09183">
        <ele>26.09</ele>
        <time>2021-02-25T15:02:28Z</time>
      </trkpt>
      <trkpt lat="45.72493" lon="-1.09206">
        <ele>26.09</ele>
        <time>2021-02-25T15:02:40Z</time>
      </trkpt>
      <trkpt lat="45.72511" lon="-1.09238">
        <ele>26.09</ele>
        <time>2021-02-25T15:03:07Z</time>
      </trkpt>
      <trkpt lat="45.72525" lon="-1.09259">
        <ele>27.05</ele>
        <time>2021-02-25T15:03:20Z</time>
      </trkpt>
      <trkpt lat="45.72537" lon="-1.09275">
        <ele>27.53</ele>
        <time>2021-02-25T15:03:30Z</time>
      </trkpt>
      <trkpt lat="45.7255" lon="-1.0929">
        <ele>27.05</ele>
        <time>2021-02-25T15:03:40Z</time>
      </trkpt>
      <trkpt lat="45.72561" lon="-1.09308">
        <ele>27.53</ele>
        <time>2021-02-25T15:03:53Z</time>
      </trkpt>
      <trkpt lat="45.72571" lon="-1.09318">
        <ele>28.02</ele>
        <time>2021-02-25T15:04:02Z</time>
      </trkpt>
      <trkpt lat="45.72577" lon="-1.0933">
        <ele>28.5</ele>
        <time>2021-02-25T15:04:10Z</time>
      </trkpt>
      <trkpt lat="45.72584" lon="-1.09343">
        <ele>28.5</ele>
        <time>2021-02-25T15:04:20Z</time>
      </trkpt>
      <trkpt lat="45.72591" lon="-1.09357">
        <ele>28.5</ele>
        <time>2021-02-25T15:04:32Z</time>
      </trkpt>
      <trkpt lat="45.726" lon="-1.0937">
        <ele>28.5</ele>
        <time>2021-02-25T15:04:47Z</time>
      </trkpt>
      <trkpt lat="45.72606" lon="-1.09382">
        <ele>28.5</ele>
        <time>2021-02-25T15:04:57Z</time>
      </trkpt>
      <trkpt lat="45.72614" lon="-1.09392">
        <ele>28.5</ele>
        <time>2021-02-25T15:05:07Z</time>
      </trkpt>
      <trkpt lat="45.72622" lon="-1.09402">
        <ele>28.5</ele>
        <time>2021-02-25T15:05:16Z</time>
      </trkpt>
      <trkpt lat="45.72629" lon="-1.09415">
        <ele>28.02</ele>
        <time>2021-02-25T15:06:12Z</time>
      </trkpt>
      <trkpt lat="45.72627" lon="-1.09424">
        <ele>28.02</ele>
        <time>2021-02-25T15:06:56Z</time>
      </trkpt>
      <trkpt lat="45.72618" lon="-1.09432">
        <ele>28.02</ele>
        <time>2021-02-25T15:07:07Z</time>
      </trkpt>
      <trkpt lat="45.72609" lon="-1.09439">
        <ele>27.53</ele>
        <time>2021-02-25T15:07:15Z</time>
      </trkpt>
      <trkpt lat="45.72605" lon="-1.09452">
        <ele>27.05</ele>
        <time>2021-02-25T15:07:25Z</time>
      </trkpt>
      <trkpt lat="45.72607" lon="-1.09465">
        <ele>27.05</ele>
        <time>2021-02-25T15:07:36Z</time>
      </trkpt>
      <trkpt lat="45.72612" lon="-1.09476">
        <ele>27.53</ele>
        <time>2021-02-25T15:07:46Z</time>
      </trkpt>
      <trkpt lat="45.72616" lon="-1.0949">
        <ele>27.53</ele>
        <time>2021-02-25T15:08:00Z</time>
      </trkpt>
      <trkpt lat="45.7262" lon="-1.0951">
        <ele>27.53</ele>
        <time>2021-02-25T15:08:13Z</time>
      </trkpt>
      <trkpt lat="45.72629" lon="-1.09523">
        <ele>27.53</ele>
        <time>2021-02-25T15:08:25Z</time>
      </trkpt>
      <trkpt lat="45.72644" lon="-1.09536">
        <ele>27.53</ele>
        <time>2021-02-25T15:08:39Z</time>
      </trkpt>
      <trkpt lat="45.72652" lon="-1.09554">
        <ele>28.02</ele>
        <time>2021-02-25T15:08:53Z</time>
      </trkpt>
      <trkpt lat="45.72666" lon="-1.0957">
        <ele>28.02</ele>
        <time>2021-02-25T15:09:11Z</time>
      </trkpt>
      <trkpt lat="45.7268" lon="-1.09588">
        <ele>28.02</ele>
        <time>2021-02-25T15:09:32Z</time>
      </trkpt>
      <trkpt lat="45.72695" lon="-1.09608">
        <ele>28.02</ele>
        <time>2021-02-25T15:09:53Z</time>
      </trkpt>
      <trkpt lat="45.72704" lon="-1.09619">
        <ele>28.5</ele>
        <time>2021-02-25T15:10:06Z</time>
      </trkpt>
      <trkpt lat="45.72712" lon="-1.09624">
        <ele>28.5</ele>
        <time>2021-02-25T15:10:16Z</time>
      </trkpt>
      <trkpt lat="45.72717" lon="-1.09635">
        <ele>28.02</ele>
        <time>2021-02-25T15:10:26Z</time>
      </trkpt>
      <trkpt lat="45.72723" lon="-1.09648">
        <ele>28.5</ele>
        <time>2021-02-25T15:10:36Z</time>
      </trkpt>
      <trkpt lat="45.72727" lon="-1.09662">
        <ele>28.5</ele>
        <time>2021-02-25T15:10:46Z</time>
      </trkpt>
      <trkpt lat="45.72739" lon="-1.09681">
        <ele>28.5</ele>
        <time>2021-02-25T15:10:56Z</time>
      </trkpt>
      <trkpt lat="45.72752" lon="-1.09701">
        <ele>28.5</ele>
        <time>2021-02-25T15:11:11Z</time>
      </trkpt>
    </trkseg>
  </trk>
</gpx>